PWSweather.com
Personal Weather Stations
Station Observations
KM01CL
Kitemaniak 01, Castiglione Del LagoIT 06061

Kitemaniak 01Castiglione Del LagoIT 06061

Lat: 43.133808, Lon: 12.045753

Elevation: 997

Station Type: Ventus W831

High Low Average
Temperature 57.9°F14.4°C 43.3°F6.3°C 49.0°F9.4°C
Dew Point 50.1°F10.1°C 37.2°F2.9°C 43.3°F6.3°C
Winds 10.7 mph 17.2 kmh Calm Calm 4.0 mph S6.4 kmh S
Wind Gusts 13.7 mph22.0 kmh -- 5.0 mph8.0 kmh
Humidity 92% 65% 81%
Pressure 30.26 in1024.7 mb 29.94 in1013.9 mb -
Precipitation 0.19 in4.8 mm - -
Hour Temp Dew Point Humidity Winds Wind Gusts Pressure Precip Precip Rate Daily Precip Total
12:03 AM 43.3°F6.3°C 40.9°F4.9°C 91% 1.6 mph SE2.6 kmh SE 3.1 mph5.0 kmh 30.25 in1024.4 mb 0.00 in0.0 mm 0.00 in0.0 mm 0.00 in0.0 mm
12:04 AM 43.5°F6.4°C 41.1°F5.1°C 91% Calm Calm 1.6 mph2.6 kmh 30.26 in1024.7 mb 0.00 in0.0 mm 0.00 in0.0 mm 0.00 in0.0 mm
12:09 AM 43.5°F6.4°C 41.1°F5.1°C 91% 2.2 mph ENE3.5 kmh ENE 3.8 mph6.1 kmh 30.24 in1024.0 mb 0.00 in0.0 mm 0.00 in0.0 mm 0.00 in0.0 mm
12:10 AM 43.7°F6.5°C 41.3°F5.2°C 91% 2.2 mph SE3.5 kmh SE 3.8 mph6.1 kmh 30.25 in1024.4 mb 0.00 in0.0 mm 0.00 in0.0 mm 0.00 in0.0 mm
12:14 AM 43.7°F6.5°C 41.3°F5.2°C 91% 3.1 mph SE5.0 kmh SE 3.1 mph5.0 kmh 30.24 in1024.0 mb 0.00 in0.0 mm 0.00 in0.0 mm 0.00 in0.0 mm
12:18 AM 43.9°F6.6°C 41.4°F5.2°C 91% 3.8 mph SE6.1 kmh SE 4.5 mph7.2 kmh 30.24 in1024.0 mb 0.00 in0.0 mm 0.00 in0.0 mm 0.00 in0.0 mm
12:25 AM 43.9°F6.6°C 41.4°F5.2°C 91% 3.8 mph SE6.1 kmh SE 4.5 mph7.2 kmh 30.24 in1024.0 mb 0.00 in0.0 mm 0.00 in0.0 mm 0.00 in0.0 mm
12:29 AM 43.9°F6.6°C 41.4°F5.2°C 91% 4.5 mph SE7.2 kmh SE 5.4 mph8.7 kmh 30.24 in1024.0 mb 0.00 in0.0 mm 0.00 in0.0 mm 0.00 in0.0 mm
12:31 AM 44.1°F6.7°C 41.6°F5.3°C 91% 0.7 mph SE1.1 kmh SE 1.6 mph2.6 kmh 30.24 in1024.0 mb 0.00 in0.0 mm 0.00 in0.0 mm 0.00 in0.0 mm
12:35 AM 44.1°F6.7°C 41.6°F5.3°C 91% 3.1 mph SE5.0 kmh SE 4.5 mph7.2 kmh 30.24 in1024.0 mb 0.00 in0.0 mm 0.00 in0.0 mm 0.00 in0.0 mm
12:37 AM 44.1°F6.7°C 41.6°F5.3°C 91% 3.8 mph SE6.1 kmh SE 4.5 mph7.2 kmh 30.24 in1024.0 mb 0.00 in0.0 mm 0.00 in0.0 mm 0.00 in0.0 mm
12:41 AM 44.2°F6.8°C 41.8°F5.4°C 91% 4.5 mph SE7.2 kmh SE 5.4 mph8.7 kmh 30.23 in1023.7 mb 0.00 in0.0 mm 0.00 in0.0 mm 0.00 in0.0 mm
12:43 AM 44.4°F6.9°C 42.2°F5.7°C 92% 3.8 mph SE6.1 kmh SE 4.5 mph7.2 kmh 30.24 in1024.0 mb 0.00 in0.0 mm 0.00 in0.0 mm 0.00 in0.0 mm
12:47 AM 44.6°F7.0°C 42.4°F5.8°C 92% 4.5 mph SE7.2 kmh SE 5.4 mph8.7 kmh 30.24 in1024.0 mb 0.00 in0.0 mm 0.00 in0.0 mm 0.00 in0.0 mm
12:49 AM 44.8°F7.1°C 42.6°F5.9°C 92% 3.8 mph ENE6.1 kmh ENE 4.5 mph7.2 kmh 30.24 in1024.0 mb 0.00 in0.0 mm 0.00 in0.0 mm 0.00 in0.0 mm
12:53 AM 44.8°F7.1°C 42.6°F5.9°C 92% 3.1 mph SE5.0 kmh SE 3.8 mph6.1 kmh 30.24 in1024.0 mb 0.00 in0.0 mm 0.00 in0.0 mm 0.00 in0.0 mm
12:55 AM 45.0°F7.2°C 42.8°F6.0°C 92% 4.5 mph SE7.2 kmh SE 5.4 mph8.7 kmh 30.23 in1023.7 mb 0.00 in0.0 mm 0.00 in0.0 mm 0.00 in0.0 mm
12:59 AM 45.0°F7.2°C 42.8°F6.0°C 92% 4.5 mph SE7.2 kmh SE 5.4 mph8.7 kmh 30.23 in1023.7 mb 0.00 in0.0 mm 0.00 in0.0 mm 0.00 in0.0 mm
01:03 AM 45.1°F7.3°C 43.0°F6.1°C 92% 4.5 mph SE7.2 kmh SE 5.4 mph8.7 kmh 30.23 in1023.7 mb 0.00 in0.0 mm 0.00 in0.0 mm 0.00 in0.0 mm
01:05 AM 45.3°F7.4°C 43.1°F6.2°C 92% 5.4 mph SE8.7 kmh SE 6.0 mph9.7 kmh 30.23 in1023.7 mb 0.00 in0.0 mm 0.00 in0.0 mm 0.00 in0.0 mm
01:09 AM 45.3°F7.4°C 43.1°F6.2°C 92% 6.0 mph SE9.7 kmh SE 6.9 mph11.1 kmh 30.23 in1023.7 mb 0.00 in0.0 mm 0.00 in0.0 mm 0.00 in0.0 mm
01:11 AM 45.5°F7.5°C 42.2°F5.7°C 88% 6.0 mph SE9.7 kmh SE 6.9 mph11.1 kmh 30.23 in1023.7 mb 0.00 in0.0 mm 0.00 in0.0 mm 0.00 in0.0 mm
01:13 AM 45.7°F7.6°C 42.3°F5.7°C 88% 3.8 mph SE6.1 kmh SE 5.4 mph8.7 kmh 30.22 in1023.4 mb 0.00 in0.0 mm 0.00 in0.0 mm 0.00 in0.0 mm
01:17 AM 45.7°F7.6°C 42.3°F5.7°C 88% 6.9 mph SE11.1 kmh SE 8.3 mph13.4 kmh 30.22 in1023.4 mb 0.00 in0.0 mm 0.00 in0.0 mm 0.00 in0.0 mm
01:19 AM 45.9°F7.7°C 42.5°F5.8°C 88% 6.9 mph E11.1 kmh E 7.6 mph12.2 kmh 30.22 in1023.4 mb 0.00 in0.0 mm 0.00 in0.0 mm 0.00 in0.0 mm
01:23 AM 46.0°F7.8°C 42.7°F5.9°C 88% 3.1 mph ENE5.0 kmh ENE 4.5 mph7.2 kmh 30.23 in1023.7 mb 0.00 in0.0 mm 0.00 in0.0 mm 0.00 in0.0 mm
01:25 AM 46.0°F7.8°C 42.7°F5.9°C 88% 3.8 mph SE6.1 kmh SE 5.4 mph8.7 kmh 30.23 in1023.7 mb 0.00 in0.0 mm 0.00 in0.0 mm 0.00 in0.0 mm
01:29 AM 46.4°F8.0°C 43.3°F6.3°C 89% 7.6 mph E12.2 kmh E 8.3 mph13.4 kmh 30.22 in1023.4 mb 0.00 in0.0 mm 0.00 in0.0 mm 0.00 in0.0 mm
01:31 AM 46.4°F8.0°C 43.3°F6.3°C 89% 3.8 mph SE6.1 kmh SE 4.5 mph7.2 kmh 30.22 in1023.4 mb 0.00 in0.0 mm 0.00 in0.0 mm 0.00 in0.0 mm
01:35 AM 46.6°F8.1°C 43.5°F6.4°C 89% 3.1 mph ENE5.0 kmh ENE 4.5 mph7.2 kmh 30.23 in1023.7 mb 0.00 in0.0 mm 0.00 in0.0 mm 0.00 in0.0 mm
01:37 AM 46.6°F8.1°C 43.5°F6.4°C 89% 3.1 mph SE5.0 kmh SE 3.8 mph6.1 kmh 30.23 in1023.7 mb 0.00 in0.0 mm 0.00 in0.0 mm 0.00 in0.0 mm
01:41 AM 46.6°F8.1°C 43.5°F6.4°C 89% 3.8 mph E6.1 kmh E 5.4 mph8.7 kmh 30.22 in1023.4 mb 0.00 in0.0 mm 0.00 in0.0 mm 0.00 in0.0 mm
01:43 AM 46.4°F8.0°C 43.3°F6.3°C 89% 4.5 mph E7.2 kmh E 5.4 mph8.7 kmh 30.22 in1023.4 mb 0.00 in0.0 mm 0.00 in0.0 mm 0.00 in0.0 mm
01:47 AM 46.2°F7.9°C 43.2°F6.2°C 89% 3.8 mph SE6.1 kmh SE 4.5 mph7.2 kmh 30.22 in1023.4 mb 0.00 in0.0 mm 0.00 in0.0 mm 0.00 in0.0 mm
01:51 AM 46.0°F7.8°C 42.7°F5.9°C 88% 3.8 mph E6.1 kmh E 4.5 mph7.2 kmh 30.22 in1023.4 mb 0.00 in0.0 mm 0.00 in0.0 mm 0.00 in0.0 mm
01:53 AM 45.7°F7.6°C 42.3°F5.7°C 88% 1.6 mph E2.6 kmh E 2.2 mph3.5 kmh 30.21 in1023.0 mb 0.00 in0.0 mm 0.00 in0.0 mm 0.00 in0.0 mm
01:57 AM 45.5°F7.5°C 42.2°F5.7°C 88% 3.1 mph E5.0 kmh E 3.8 mph6.1 kmh 30.21 in1023.0 mb 0.00 in0.0 mm 0.00 in0.0 mm 0.00 in0.0 mm
01:59 AM 45.1°F7.3°C 43.0°F6.1°C 92% 3.1 mph E5.0 kmh E 4.5 mph7.2 kmh 30.21 in1023.0 mb 0.00 in0.0 mm 0.00 in0.0 mm 0.00 in0.0 mm
02:06 AM 45.1°F7.3°C 43.0°F6.1°C 92% 3.1 mph E5.0 kmh E 4.5 mph7.2 kmh 30.21 in1023.0 mb 0.00 in0.0 mm 0.00 in0.0 mm 0.00 in0.0 mm
02:12 AM 45.0°F7.2°C 42.8°F6.0°C 92% 6.0 mph E9.7 kmh E 6.9 mph11.1 kmh 30.21 in1023.0 mb 0.00 in0.0 mm 0.00 in0.0 mm 0.00 in0.0 mm
02:15 AM 45.3°F7.4°C 43.1°F6.2°C 92% 5.4 mph E8.7 kmh E 6.0 mph9.7 kmh 30.21 in1023.0 mb 0.00 in0.0 mm 0.00 in0.0 mm 0.00 in0.0 mm
02:19 AM 45.7°F7.6°C 42.6°F5.9°C 89% 5.4 mph E8.7 kmh E 6.0 mph9.7 kmh 30.21 in1023.0 mb 0.00 in0.0 mm 0.00 in0.0 mm 0.00 in0.0 mm
02:21 AM 45.7°F7.6°C 42.6°F5.9°C 89% 5.4 mph SE8.7 kmh SE 6.0 mph9.7 kmh 30.20 in1022.7 mb 0.00 in0.0 mm 0.00 in0.0 mm 0.00 in0.0 mm
02:25 AM 45.9°F7.7°C 42.8°F6.0°C 89% 5.4 mph SE8.7 kmh SE 6.0 mph9.7 kmh 30.21 in1023.0 mb 0.00 in0.0 mm 0.00 in0.0 mm 0.00 in0.0 mm
02:29 AM 46.0°F7.8°C 43.0°F6.1°C 89% 2.2 mph S3.5 kmh S 3.1 mph5.0 kmh 30.21 in1023.0 mb 0.00 in0.0 mm 0.00 in0.0 mm 0.00 in0.0 mm
02:31 AM 46.0°F7.8°C 43.0°F6.1°C 89% 1.6 mph SE2.6 kmh SE 1.6 mph2.6 kmh 30.20 in1022.7 mb 0.00 in0.0 mm 0.00 in0.0 mm 0.00 in0.0 mm
02:35 AM 46.2°F7.9°C 43.2°F6.2°C 89% 3.1 mph SE5.0 kmh SE 3.8 mph6.1 kmh 30.20 in1022.7 mb 0.00 in0.0 mm 0.00 in0.0 mm 0.00 in0.0 mm
02:37 AM 46.2°F7.9°C 43.2°F6.2°C 89% 3.1 mph S5.0 kmh S 4.5 mph7.2 kmh 30.20 in1022.7 mb 0.00 in0.0 mm 0.00 in0.0 mm 0.00 in0.0 mm
02:41 AM 46.6°F8.1°C 43.5°F6.4°C 89% 5.4 mph SSE8.7 kmh SSE 6.9 mph11.1 kmh 30.20 in1022.7 mb 0.00 in0.0 mm 0.00 in0.0 mm 0.00 in0.0 mm
02:43 AM 46.9°F8.3°C 43.9°F6.6°C 89% 4.5 mph S7.2 kmh S 5.4 mph8.7 kmh 30.20 in1022.7 mb 0.00 in0.0 mm 0.00 in0.0 mm 0.00 in0.0 mm
02:47 AM 47.3°F8.5°C 44.5°F6.9°C 90% 4.5 mph S7.2 kmh S 6.0 mph9.7 kmh 30.20 in1022.7 mb 0.00 in0.0 mm 0.00 in0.0 mm 0.00 in0.0 mm
02:49 AM 47.5°F8.6°C 44.7°F7.1°C 90% 3.1 mph SE5.0 kmh SE 3.8 mph6.1 kmh 30.19 in1022.4 mb 0.00 in0.0 mm 0.00 in0.0 mm 0.00 in0.0 mm
02:53 AM 47.7°F8.7°C 44.9°F7.2°C 90% 4.5 mph SE7.2 kmh SE 6.0 mph9.7 kmh 30.19 in1022.4 mb 0.00 in0.0 mm 0.00 in0.0 mm 0.00 in0.0 mm
02:55 AM 47.8°F8.8°C 45.1°F7.3°C 90% 3.8 mph SE6.1 kmh SE 5.4 mph8.7 kmh 30.19 in1022.4 mb 0.00 in0.0 mm 0.00 in0.0 mm 0.00 in0.0 mm
02:59 AM 47.8°F8.8°C 45.1°F7.3°C 90% 6.0 mph SE9.7 kmh SE 6.9 mph11.1 kmh 30.19 in1022.4 mb 0.00 in0.0 mm 0.00 in0.0 mm 0.00 in0.0 mm
03:01 AM 47.8°F8.8°C 45.1°F7.3°C 90% 7.6 mph ENE12.2 kmh ENE 10.7 mph17.2 kmh 30.19 in1022.4 mb 0.00 in0.0 mm 0.00 in0.0 mm 0.00 in0.0 mm
03:05 AM 47.8°F8.8°C 45.1°F7.3°C 90% 10.7 mph SE17.2 kmh SE 13.7 mph22.0 kmh 30.19 in1022.4 mb 0.00 in0.0 mm 0.00 in0.0 mm 0.00 in0.0 mm
03:07 AM 48.0°F8.9°C 45.2°F7.3°C 90% 5.4 mph SE8.7 kmh SE 6.9 mph11.1 kmh 30.19 in1022.4 mb 0.00 in0.0 mm 0.00 in0.0 mm 0.00 in0.0 mm
03:11 AM 48.2°F9.0°C 45.4°F7.4°C 90% 6.0 mph SE9.7 kmh SE 7.6 mph12.2 kmh 30.18 in1022.0 mb 0.00 in0.0 mm 0.00 in0.0 mm 0.00 in0.0 mm
03:13 AM 48.2°F9.0°C 45.4°F7.4°C 90% 6.0 mph SE9.7 kmh SE 6.9 mph11.1 kmh 30.18 in1022.0 mb 0.00 in0.0 mm 0.00 in0.0 mm 0.00 in0.0 mm
03:18 AM 48.2°F9.0°C 45.4°F7.4°C 90% 4.5 mph SSE7.2 kmh SSE 6.0 mph9.7 kmh 30.18 in1022.0 mb 0.00 in0.0 mm 0.00 in0.0 mm 0.00 in0.0 mm
03:21 AM 48.2°F9.0°C 45.4°F7.4°C 90% 7.6 mph E12.2 kmh E 8.3 mph13.4 kmh 30.18 in1022.0 mb 0.00 in0.0 mm 0.00 in0.0 mm 0.00 in0.0 mm
03:23 AM 48.2°F9.0°C 45.4°F7.4°C 90% 7.6 mph SE12.2 kmh SE 8.3 mph13.4 kmh 30.17 in1021.7 mb 0.00 in0.0 mm 0.00 in0.0 mm 0.00 in0.0 mm
03:27 AM 48.0°F8.9°C 45.2°F7.3°C 90% 7.6 mph SE12.2 kmh SE 8.3 mph13.4 kmh 30.17 in1021.7 mb 0.00 in0.0 mm 0.00 in0.0 mm 0.00 in0.0 mm
03:29 AM 47.8°F8.8°C 45.1°F7.3°C 90% 7.6 mph SE12.2 kmh SE 8.3 mph13.4 kmh 30.17 in1021.7 mb 0.00 in0.0 mm 0.00 in0.0 mm 0.00 in0.0 mm
03:34 AM 47.3°F8.5°C 44.5°F6.9°C 90% 8.3 mph E13.4 kmh E 9.2 mph14.8 kmh 30.17 in1021.7 mb 0.00 in0.0 mm 0.00 in0.0 mm 0.00 in0.0 mm
03:37 AM 46.8°F8.2°C 44.0°F6.7°C 90% 8.3 mph ENE13.4 kmh ENE 9.2 mph14.8 kmh 30.16 in1021.3 mb 0.00 in0.0 mm 0.00 in0.0 mm 0.00 in0.0 mm
03:41 AM 46.6°F8.1°C 43.5°F6.4°C 89% 7.6 mph SE12.2 kmh SE 9.2 mph14.8 kmh 30.16 in1021.3 mb 0.00 in0.0 mm 0.00 in0.0 mm 0.00 in0.0 mm
03:43 AM 46.6°F8.1°C 43.5°F6.4°C 89% 8.3 mph E13.4 kmh E 9.8 mph15.8 kmh 30.16 in1021.3 mb 0.00 in0.0 mm 0.00 in0.0 mm 0.00 in0.0 mm
03:47 AM 46.4°F8.0°C 43.3°F6.3°C 89% 6.9 mph SE11.1 kmh SE 7.6 mph12.2 kmh 30.16 in1021.3 mb 0.00 in0.0 mm 0.00 in0.0 mm 0.00 in0.0 mm
03:49 AM 46.4°F8.0°C 43.3°F6.3°C 89% 6.0 mph ENE9.7 kmh ENE 6.9 mph11.1 kmh 30.16 in1021.3 mb 0.00 in0.0 mm 0.00 in0.0 mm 0.00 in0.0 mm
03:54 AM 46.2°F7.9°C 43.2°F6.2°C 89% 4.5 mph E7.2 kmh E 6.0 mph9.7 kmh 30.16 in1021.3 mb 0.00 in0.0 mm 0.00 in0.0 mm 0.00 in0.0 mm
03:56 AM 46.0°F7.8°C 43.0°F6.1°C 89% 3.1 mph E5.0 kmh E 3.8 mph6.1 kmh 30.15 in1021.0 mb 0.00 in0.0 mm 0.00 in0.0 mm 0.00 in0.0 mm
04:00 AM 45.9°F7.7°C 42.8°F6.0°C 89% 3.8 mph SE6.1 kmh SE 4.5 mph7.2 kmh 30.15 in1021.0 mb 0.00 in0.0 mm 0.00 in0.0 mm 0.00 in0.0 mm
04:04 AM 45.9°F7.7°C 42.8°F6.0°C 89% 3.8 mph SE6.1 kmh SE 4.5 mph7.2 kmh 30.15 in1021.0 mb 0.00 in0.0 mm 0.00 in0.0 mm 0.00 in0.0 mm
04:06 AM 45.9°F7.7°C 42.8°F6.0°C 89% 3.8 mph SE6.1 kmh SE 4.5 mph7.2 kmh 30.15 in1021.0 mb 0.00 in0.0 mm 0.00 in0.0 mm 0.00 in0.0 mm
04:10 AM 46.4°F8.0°C 43.6°F6.4°C 90% 5.4 mph SE8.7 kmh SE 6.0 mph9.7 kmh 30.15 in1021.0 mb 0.00 in0.0 mm 0.00 in0.0 mm 0.00 in0.0 mm
04:12 AM 46.6°F8.1°C 43.8°F6.6°C 90% 6.9 mph ENE11.1 kmh ENE 7.6 mph12.2 kmh 30.16 in1021.3 mb 0.00 in0.0 mm 0.00 in0.0 mm 0.00 in0.0 mm
04:16 AM 46.6°F8.1°C 43.8°F6.6°C 90% 8.3 mph SE13.4 kmh SE 9.2 mph14.8 kmh 30.15 in1021.0 mb 0.00 in0.0 mm 0.00 in0.0 mm 0.00 in0.0 mm
04:18 AM 46.6°F8.1°C 43.8°F6.6°C 90% 9.2 mph ENE14.8 kmh ENE 10.7 mph17.2 kmh 30.14 in1020.7 mb 0.00 in0.0 mm 0.00 in0.0 mm 0.00 in0.0 mm
04:22 AM 46.8°F8.2°C 44.0°F6.7°C 90% 9.8 mph SE15.8 kmh SE 10.7 mph17.2 kmh 30.14 in1020.7 mb 0.00 in0.0 mm 0.00 in0.0 mm 0.00 in0.0 mm
04:24 AM 46.9°F8.3°C 44.2°F6.8°C 90% 9.2 mph SE14.8 kmh SE 9.8 mph15.8 kmh 30.14 in1020.7 mb 0.00 in0.0 mm 0.00 in0.0 mm 0.00 in0.0 mm
04:28 AM 46.9°F8.3°C 44.2°F6.8°C 90% 9.2 mph SE14.8 kmh SE 10.7 mph17.2 kmh 30.14 in1020.7 mb 0.00 in0.0 mm 0.00 in0.0 mm 0.00 in0.0 mm
04:30 AM 46.9°F8.3°C 44.2°F6.8°C 90% 7.6 mph SE12.2 kmh SE 8.3 mph13.4 kmh 30.14 in1020.7 mb 0.00 in0.0 mm 0.00 in0.0 mm 0.00 in0.0 mm
04:32 AM 47.1°F8.4°C 44.3°F6.8°C 90% 7.6 mph SE12.2 kmh SE 9.2 mph14.8 kmh 30.13 in1020.3 mb 0.00 in0.0 mm 0.00 in0.0 mm 0.00 in0.0 mm
04:36 AM 47.1°F8.4°C 44.3°F6.8°C 90% 7.6 mph SE12.2 kmh SE 8.3 mph13.4 kmh 30.13 in1020.3 mb 0.00 in0.0 mm 0.00 in0.0 mm 0.00 in0.0 mm
04:38 AM 47.1°F8.4°C 44.3°F6.8°C 90% 3.8 mph SE6.1 kmh SE 5.4 mph8.7 kmh 30.13 in1020.3 mb 0.00 in0.0 mm 0.00 in0.0 mm 0.00 in0.0 mm
04:42 AM 46.9°F8.3°C 44.2°F6.8°C 90% 5.4 mph SE8.7 kmh SE 6.9 mph11.1 kmh 30.14 in1020.7 mb 0.00 in0.0 mm 0.00 in0.0 mm 0.00 in0.0 mm
04:46 AM 46.9°F8.3°C 44.2°F6.8°C 90% 3.8 mph S6.1 kmh S 5.4 mph8.7 kmh 30.13 in1020.3 mb 0.00 in0.0 mm 0.00 in0.0 mm 0.00 in0.0 mm
04:48 AM 46.8°F8.2°C 44.0°F6.7°C 90% 3.8 mph SE6.1 kmh SE 4.5 mph7.2 kmh 30.13 in1020.3 mb 0.00 in0.0 mm 0.00 in0.0 mm 0.00 in0.0 mm
04:52 AM 46.9°F8.3°C 44.2°F6.8°C 90% 5.4 mph E8.7 kmh E 6.0 mph9.7 kmh 30.12 in1020.0 mb 0.00 in0.0 mm 0.00 in0.0 mm 0.00 in0.0 mm
04:54 AM 46.9°F8.3°C 44.2°F6.8°C 90% 4.5 mph E7.2 kmh E 5.4 mph8.7 kmh 30.13 in1020.3 mb 0.00 in0.0 mm 0.00 in0.0 mm 0.00 in0.0 mm
04:58 AM 46.8°F8.2°C 44.0°F6.7°C 90% 6.0 mph E9.7 kmh E 6.9 mph11.1 kmh 30.13 in1020.3 mb 0.00 in0.0 mm 0.00 in0.0 mm 0.00 in0.0 mm
05:00 AM 46.8°F8.2°C 44.0°F6.7°C 90% 6.9 mph E11.1 kmh E 7.6 mph12.2 kmh 30.12 in1020.0 mb 0.00 in0.0 mm 0.00 in0.0 mm 0.00 in0.0 mm
05:04 AM 46.9°F8.3°C 44.2°F6.8°C 90% 9.2 mph E14.8 kmh E 10.7 mph17.2 kmh 30.12 in1020.0 mb 0.00 in0.0 mm 0.00 in0.0 mm 0.00 in0.0 mm
05:06 AM 46.9°F8.3°C 44.2°F6.8°C 90% 6.9 mph ENE11.1 kmh ENE 8.3 mph13.4 kmh 30.12 in1020.0 mb 0.00 in0.0 mm 0.00 in0.0 mm 0.00 in0.0 mm
05:10 AM 46.9°F8.3°C 44.2°F6.8°C 90% 9.8 mph E15.8 kmh E 11.4 mph18.3 kmh 30.12 in1020.0 mb 0.00 in0.0 mm 0.00 in0.0 mm 0.00 in0.0 mm
05:12 AM 47.3°F8.5°C 44.5°F6.9°C 90% 9.2 mph E14.8 kmh E 10.7 mph17.2 kmh 30.11 in1019.6 mb 0.00 in0.0 mm 0.00 in0.0 mm 0.00 in0.0 mm
05:16 AM 47.7°F8.7°C 44.9°F7.2°C 90% 10.7 mph SE17.2 kmh SE 13.0 mph20.9 kmh 30.11 in1019.6 mb 0.00 in0.0 mm 0.00 in0.0 mm 0.00 in0.0 mm
05:19 AM 48.0°F8.9°C 45.2°F7.3°C 90% 5.4 mph SE8.7 kmh SE 6.9 mph11.1 kmh 30.11 in1019.6 mb 0.00 in0.0 mm 0.00 in0.0 mm 0.00 in0.0 mm
05:22 AM 48.2°F9.0°C 45.4°F7.4°C 90% 6.9 mph SE11.1 kmh SE 7.6 mph12.2 kmh 30.11 in1019.6 mb 0.00 in0.0 mm 0.00 in0.0 mm 0.00 in0.0 mm
05:24 AM 48.4°F9.1°C 45.6°F7.6°C 90% 6.9 mph SE11.1 kmh SE 7.6 mph12.2 kmh 30.11 in1019.6 mb 0.00 in0.0 mm 0.00 in0.0 mm 0.00 in0.0 mm
05:28 AM 48.4°F9.1°C 45.6°F7.6°C 90% 8.3 mph E13.4 kmh E 10.7 mph17.2 kmh 30.11 in1019.6 mb 0.00 in0.0 mm 0.00 in0.0 mm 0.00 in0.0 mm
05:31 AM 48.6°F9.2°C 45.8°F7.7°C 90% 4.5 mph SE7.2 kmh SE 5.4 mph8.7 kmh 30.11 in1019.6 mb 0.00 in0.0 mm 0.00 in0.0 mm 0.00 in0.0 mm
05:34 AM 48.6°F9.2°C 45.8°F7.7°C 90% 3.1 mph ENE5.0 kmh ENE 4.5 mph7.2 kmh 30.11 in1019.6 mb 0.00 in0.0 mm 0.00 in0.0 mm 0.00 in0.0 mm
05:38 AM 48.7°F9.3°C 45.9°F7.7°C 90% Calm Calm -- 30.12 in1020.0 mb 0.00 in0.0 mm 0.00 in0.0 mm 0.00 in0.0 mm
05:42 AM 48.7°F9.3°C 45.9°F7.7°C 90% 3.1 mph SE5.0 kmh SE 4.5 mph7.2 kmh 30.11 in1019.6 mb 0.00 in0.0 mm 0.00 in0.0 mm 0.00 in0.0 mm
05:46 AM 48.7°F9.3°C 45.9°F7.7°C 90% Calm Calm -- 30.11 in1019.6 mb 0.00 in0.0 mm 0.00 in0.0 mm 0.00 in0.0 mm
05:50 AM 48.7°F9.3°C 45.9°F7.7°C 90% 0.7 mph SE1.1 kmh SE 1.6 mph2.6 kmh 30.10 in1019.3 mb 0.00 in0.0 mm 0.00 in0.0 mm 0.00 in0.0 mm
05:54 AM 48.7°F9.3°C 45.9°F7.7°C 90% Calm Calm -- 30.10 in1019.3 mb 0.00 in0.0 mm 0.00 in0.0 mm 0.00 in0.0 mm
05:58 AM 48.7°F9.3°C 45.9°F7.7°C 90% Calm Calm -- 30.10 in1019.3 mb 0.00 in0.0 mm 0.00 in0.0 mm 0.00 in0.0 mm
06:02 AM 48.7°F9.3°C 45.9°F7.7°C 90% Calm Calm -- 30.10 in1019.3 mb 0.00 in0.0 mm 0.00 in0.0 mm 0.00 in0.0 mm
06:06 AM 48.6°F9.2°C 45.8°F7.7°C 90% Calm Calm -- 30.10 in1019.3 mb 0.00 in0.0 mm 0.00 in0.0 mm 0.00 in0.0 mm
06:08 AM 48.0°F8.9°C 45.2°F7.3°C 90% Calm Calm -- 30.09 in1019.0 mb 0.00 in0.0 mm 0.00 in0.0 mm 0.00 in0.0 mm
06:12 AM 47.3°F8.5°C 44.5°F6.9°C 90% 2.2 mph NW3.5 kmh NW 3.1 mph5.0 kmh 30.09 in1019.0 mb 0.00 in0.0 mm 0.00 in0.0 mm 0.00 in0.0 mm
06:16 AM 46.9°F8.3°C 43.9°F6.6°C 89% 1.6 mph NW2.6 kmh NW 2.2 mph3.5 kmh 30.09 in1019.0 mb 0.00 in0.0 mm 0.00 in0.0 mm 0.00 in0.0 mm
06:21 AM 46.9°F8.3°C 43.9°F6.6°C 89% Calm Calm -- 30.09 in1019.0 mb 0.00 in0.0 mm 0.00 in0.0 mm 0.00 in0.0 mm
06:25 AM 46.9°F8.3°C 43.9°F6.6°C 89% Calm Calm -- 30.09 in1019.0 mb 0.00 in0.0 mm 0.00 in0.0 mm 0.00 in0.0 mm
06:29 AM 47.1°F8.4°C 44.1°F6.7°C 89% Calm Calm -- 30.09 in1019.0 mb 0.00 in0.0 mm 0.00 in0.0 mm 0.00 in0.0 mm
06:33 AM 47.1°F8.4°C 44.1°F6.7°C 89% Calm Calm -- 30.10 in1019.3 mb 0.00 in0.0 mm 0.00 in0.0 mm 0.00 in0.0 mm
06:37 AM 47.5°F8.6°C 44.4°F6.9°C 89% 2.2 mph SE3.5 kmh SE 3.1 mph5.0 kmh 30.09 in1019.0 mb 0.00 in0.0 mm 0.00 in0.0 mm 0.00 in0.0 mm
06:41 AM 47.7°F8.7°C 44.6°F7.0°C 89% 2.2 mph SE3.5 kmh SE 3.1 mph5.0 kmh 30.09 in1019.0 mb 0.00 in0.0 mm 0.00 in0.0 mm 0.00 in0.0 mm
06:45 AM 48.0°F8.9°C 44.9°F7.2°C 89% 3.1 mph SSE5.0 kmh SSE 3.8 mph6.1 kmh 30.09 in1019.0 mb 0.00 in0.0 mm 0.00 in0.0 mm 0.00 in0.0 mm
06:49 AM 48.4°F9.1°C 45.3°F7.4°C 89% 1.6 mph E2.6 kmh E 2.2 mph3.5 kmh 30.09 in1019.0 mb 0.00 in0.0 mm 0.00 in0.0 mm 0.00 in0.0 mm
06:53 AM 48.6°F9.2°C 45.5°F7.5°C 89% 2.2 mph ENE3.5 kmh ENE 3.1 mph5.0 kmh 30.08 in1018.6 mb 0.00 in0.0 mm 0.00 in0.0 mm 0.00 in0.0 mm
06:57 AM 48.7°F9.3°C 45.9°F7.7°C 90% 6.0 mph E9.7 kmh E 6.9 mph11.1 kmh 30.08 in1018.6 mb 0.00 in0.0 mm 0.00 in0.0 mm 0.00 in0.0 mm
07:02 AM 48.9°F9.4°C 46.1°F7.8°C 90% 3.8 mph S6.1 kmh S 4.5 mph7.2 kmh 30.08 in1018.6 mb 0.00 in0.0 mm 0.00 in0.0 mm 0.00 in0.0 mm
07:06 AM 49.1°F9.5°C 46.3°F7.9°C 90% 3.1 mph SE5.0 kmh SE 3.8 mph6.1 kmh 30.09 in1019.0 mb 0.00 in0.0 mm 0.00 in0.0 mm 0.00 in0.0 mm
07:10 AM 49.3°F9.6°C 46.5°F8.1°C 90% 3.8 mph S6.1 kmh S 5.4 mph8.7 kmh 30.08 in1018.6 mb 0.00 in0.0 mm 0.00 in0.0 mm 0.00 in0.0 mm
07:14 AM 49.3°F9.6°C 46.5°F8.1°C 90% 3.8 mph SE6.1 kmh SE 4.5 mph7.2 kmh 30.08 in1018.6 mb 0.00 in0.0 mm 0.00 in0.0 mm 0.00 in0.0 mm
07:17 AM 49.3°F9.6°C 46.5°F8.1°C 90% 3.8 mph SSE6.1 kmh SSE 5.4 mph8.7 kmh 30.08 in1018.6 mb 0.00 in0.0 mm 0.00 in0.0 mm 0.00 in0.0 mm
07:20 AM 49.6°F9.8°C 46.8°F8.2°C 90% 5.4 mph SE8.7 kmh SE 6.9 mph11.1 kmh 30.08 in1018.6 mb 0.00 in0.0 mm 0.00 in0.0 mm 0.00 in0.0 mm
07:24 AM 49.8°F9.9°C 47.0°F8.3°C 90% 6.9 mph SE11.1 kmh SE 8.3 mph13.4 kmh 30.08 in1018.6 mb 0.00 in0.0 mm 0.00 in0.0 mm 0.00 in0.0 mm
07:28 AM 49.8°F9.9°C 47.0°F8.3°C 90% 7.6 mph S12.2 kmh S 9.8 mph15.8 kmh 30.08 in1018.6 mb 0.00 in0.0 mm 0.00 in0.0 mm 0.00 in0.0 mm
07:32 AM 50.0°F10.0°C 47.2°F8.4°C 90% 2.2 mph SE3.5 kmh SE 3.8 mph6.1 kmh 30.08 in1018.6 mb 0.00 in0.0 mm 0.00 in0.0 mm 0.00 in0.0 mm
07:36 AM 50.0°F10.0°C 46.9°F8.3°C 89% 9.2 mph SE14.8 kmh SE 11.4 mph18.3 kmh 30.08 in1018.6 mb 0.00 in0.0 mm 0.00 in0.0 mm 0.00 in0.0 mm
07:40 AM 50.2°F10.1°C 47.1°F8.4°C 89% 4.5 mph S7.2 kmh S 6.0 mph9.7 kmh 30.08 in1018.6 mb 0.00 in0.0 mm 0.00 in0.0 mm 0.00 in0.0 mm
07:44 AM 50.4°F10.2°C 47.2°F8.4°C 89% 6.9 mph S11.1 kmh S 7.6 mph12.2 kmh 30.08 in1018.6 mb 0.00 in0.0 mm 0.00 in0.0 mm 0.00 in0.0 mm
07:48 AM 50.4°F10.2°C 47.2°F8.4°C 89% 3.8 mph SE6.1 kmh SE 4.5 mph7.2 kmh 30.07 in1018.3 mb 0.00 in0.0 mm 0.00 in0.0 mm 0.01 in0.3 mm
07:52 AM 50.4°F10.2°C 46.9°F8.3°C 88% 3.8 mph SSE6.1 kmh SSE 4.5 mph7.2 kmh 30.07 in1018.3 mb 0.01 in0.3 mm 0.18 in4.6 mm 0.01 in0.3 mm
07:54 AM 50.4°F10.2°C 46.9°F8.3°C 88% 5.4 mph SE8.7 kmh SE 6.0 mph9.7 kmh 30.07 in1018.3 mb 0.01 in0.3 mm 0.00 in0.0 mm 0.01 in0.3 mm
07:58 AM 50.2°F10.1°C 46.8°F8.2°C 88% 9.2 mph SE14.8 kmh SE 9.8 mph15.8 kmh 30.07 in1018.3 mb 0.01 in0.3 mm 0.00 in0.0 mm 0.01 in0.3 mm
08:02 AM 50.2°F10.1°C 46.8°F8.2°C 88% 4.5 mph SE7.2 kmh SE 5.4 mph8.7 kmh 30.07 in1018.3 mb 0.01 in0.3 mm 0.00 in0.0 mm 0.01 in0.3 mm
08:07 AM 50.2°F10.1°C 46.8°F8.2°C 88% 4.5 mph SE7.2 kmh SE 5.4 mph8.7 kmh 30.08 in1018.6 mb 0.01 in0.3 mm 0.00 in0.0 mm 0.01 in0.3 mm
08:08 AM 50.2°F10.1°C 46.5°F8.1°C 87% 6.9 mph SE11.1 kmh SE 9.8 mph15.8 kmh 30.07 in1018.3 mb 0.01 in0.3 mm 0.00 in0.0 mm 0.01 in0.3 mm
08:13 AM 50.2°F10.1°C 46.5°F8.1°C 87% 4.5 mph SE7.2 kmh SE 6.9 mph11.1 kmh 30.07 in1018.3 mb 0.01 in0.3 mm 0.00 in0.0 mm 0.01 in0.3 mm
08:15 AM 50.2°F10.1°C 46.5°F8.1°C 87% 7.6 mph SE12.2 kmh SE 9.2 mph14.8 kmh 30.07 in1018.3 mb 0.01 in0.3 mm 0.00 in0.0 mm 0.01 in0.3 mm
08:19 AM 50.4°F10.2°C 46.6°F8.1°C 87% 3.8 mph SE6.1 kmh SE 4.5 mph7.2 kmh 30.07 in1018.3 mb 0.01 in0.3 mm 0.00 in0.0 mm 0.01 in0.3 mm
08:23 AM 50.4°F10.2°C 46.6°F8.1°C 87% 7.6 mph SW12.2 kmh SW 8.3 mph13.4 kmh 30.07 in1018.3 mb 0.01 in0.3 mm 0.00 in0.0 mm 0.01 in0.3 mm
08:27 AM 50.4°F10.2°C 46.6°F8.1°C 87% 5.4 mph SE8.7 kmh SE 6.9 mph11.1 kmh 30.06 in1017.9 mb 0.01 in0.3 mm 0.00 in0.0 mm 0.01 in0.3 mm
08:31 AM 50.4°F10.2°C 46.6°F8.1°C 87% 5.4 mph SE8.7 kmh SE 6.0 mph9.7 kmh 30.07 in1018.3 mb 0.01 in0.3 mm 0.00 in0.0 mm 0.01 in0.3 mm
08:35 AM 50.4°F10.2°C 46.6°F8.1°C 87% 6.9 mph SSE11.1 kmh SSE 8.3 mph13.4 kmh 30.07 in1018.3 mb 0.01 in0.3 mm 0.00 in0.0 mm 0.01 in0.3 mm
08:37 AM 50.4°F10.2°C 46.6°F8.1°C 87% 9.2 mph SE14.8 kmh SE 10.7 mph17.2 kmh 30.06 in1017.9 mb 0.01 in0.3 mm 0.00 in0.0 mm 0.01 in0.3 mm
08:41 AM 50.4°F10.2°C 46.6°F8.1°C 87% 8.3 mph SE13.4 kmh SE 9.8 mph15.8 kmh 30.06 in1017.9 mb 0.01 in0.3 mm 0.00 in0.0 mm 0.01 in0.3 mm
08:43 AM 50.4°F10.2°C 46.6°F8.1°C 87% 5.4 mph ENE8.7 kmh ENE 7.6 mph12.2 kmh 30.06 in1017.9 mb 0.01 in0.3 mm 0.00 in0.0 mm 0.01 in0.3 mm
08:47 AM 50.4°F10.2°C 46.6°F8.1°C 87% 4.5 mph SE7.2 kmh SE 5.4 mph8.7 kmh 30.06 in1017.9 mb 0.00 in0.0 mm 0.00 in0.0 mm 0.01 in0.3 mm
08:51 AM 50.5°F10.3°C 46.5°F8.1°C 86% 5.4 mph SE8.7 kmh SE 7.6 mph12.2 kmh 30.05 in1017.6 mb 0.00 in0.0 mm 0.00 in0.0 mm 0.01 in0.3 mm
08:53 AM 50.5°F10.3°C 46.5°F8.1°C 86% 7.6 mph SE12.2 kmh SE 8.3 mph13.4 kmh 30.05 in1017.6 mb 0.00 in0.0 mm 0.00 in0.0 mm 0.01 in0.3 mm
08:57 AM 50.5°F10.3°C 46.5°F8.1°C 86% 6.0 mph SE9.7 kmh SE 6.9 mph11.1 kmh 30.05 in1017.6 mb 0.00 in0.0 mm 0.00 in0.0 mm 0.01 in0.3 mm
08:59 AM 50.7°F10.4°C 46.7°F8.2°C 86% 6.0 mph SE9.7 kmh SE 7.6 mph12.2 kmh 30.05 in1017.6 mb 0.00 in0.0 mm 0.00 in0.0 mm 0.01 in0.3 mm
09:03 AM 50.7°F10.4°C 46.7°F8.2°C 86% 7.6 mph SE12.2 kmh SE 9.2 mph14.8 kmh 30.05 in1017.6 mb 0.00 in0.0 mm 0.00 in0.0 mm 0.01 in0.3 mm
09:05 AM 50.7°F10.4°C 46.7°F8.2°C 86% 6.0 mph E9.7 kmh E 8.3 mph13.4 kmh 30.05 in1017.6 mb 0.00 in0.0 mm 0.00 in0.0 mm 0.01 in0.3 mm
09:09 AM 50.9°F10.5°C 46.9°F8.3°C 86% 3.8 mph SE6.1 kmh SE 4.5 mph7.2 kmh 30.05 in1017.6 mb 0.00 in0.0 mm 0.00 in0.0 mm 0.01 in0.3 mm
09:11 AM 50.9°F10.5°C 46.9°F8.3°C 86% 3.1 mph S5.0 kmh S 3.8 mph6.1 kmh 30.05 in1017.6 mb 0.00 in0.0 mm 0.00 in0.0 mm 0.01 in0.3 mm
09:15 AM 51.1°F10.6°C 47.0°F8.3°C 86% 5.4 mph SE8.7 kmh SE 6.0 mph9.7 kmh 30.05 in1017.6 mb 0.00 in0.0 mm 0.00 in0.0 mm 0.01 in0.3 mm
09:19 AM 51.1°F10.6°C 47.0°F8.3°C 86% 5.4 mph SE8.7 kmh SE 6.9 mph11.1 kmh 30.06 in1017.9 mb 0.00 in0.0 mm 0.00 in0.0 mm 0.01 in0.3 mm
09:21 AM 51.1°F10.6°C 47.0°F8.3°C 86% 5.4 mph S8.7 kmh S 6.9 mph11.1 kmh 30.06 in1017.9 mb 0.00 in0.0 mm 0.00 in0.0 mm 0.01 in0.3 mm
09:25 AM 51.1°F10.6°C 47.0°F8.3°C 86% 3.1 mph SE5.0 kmh SE 3.8 mph6.1 kmh 30.05 in1017.6 mb 0.00 in0.0 mm 0.00 in0.0 mm 0.01 in0.3 mm
09:27 AM 51.1°F10.6°C 46.7°F8.2°C 85% 5.4 mph SE8.7 kmh SE 6.0 mph9.7 kmh 30.05 in1017.6 mb 0.00 in0.0 mm 0.00 in0.0 mm 0.01 in0.3 mm
09:31 AM 51.1°F10.6°C 46.7°F8.2°C 85% 3.8 mph SE6.1 kmh SE 4.5 mph7.2 kmh 30.05 in1017.6 mb 0.00 in0.0 mm 0.00 in0.0 mm 0.01 in0.3 mm
09:35 AM 51.1°F10.6°C 46.7°F8.2°C 85% 4.5 mph SE7.2 kmh SE 5.4 mph8.7 kmh 30.05 in1017.6 mb 0.00 in0.0 mm 0.00 in0.0 mm 0.01 in0.3 mm
09:37 AM 51.1°F10.6°C 46.7°F8.2°C 85% 3.8 mph ENE6.1 kmh ENE 4.5 mph7.2 kmh 30.05 in1017.6 mb 0.00 in0.0 mm 0.00 in0.0 mm 0.01 in0.3 mm
09:41 AM 51.1°F10.6°C 46.7°F8.2°C 85% 6.0 mph S9.7 kmh S 6.9 mph11.1 kmh 30.05 in1017.6 mb 0.00 in0.0 mm 0.00 in0.0 mm 0.01 in0.3 mm
09:43 AM 51.1°F10.6°C 46.7°F8.2°C 85% 4.5 mph E7.2 kmh E 6.0 mph9.7 kmh 30.05 in1017.6 mb 0.00 in0.0 mm 0.00 in0.0 mm 0.01 in0.3 mm
09:47 AM 51.3°F10.7°C 46.9°F8.3°C 85% 3.8 mph SE6.1 kmh SE 5.4 mph8.7 kmh 30.05 in1017.6 mb 0.00 in0.0 mm 0.00 in0.0 mm 0.01 in0.3 mm
09:49 AM 51.3°F10.7°C 46.9°F8.3°C 85% 3.8 mph ENE6.1 kmh ENE 4.5 mph7.2 kmh 30.05 in1017.6 mb 0.00 in0.0 mm 0.00 in0.0 mm 0.01 in0.3 mm
09:53 AM 51.4°F10.8°C 47.1°F8.4°C 85% 6.0 mph SE9.7 kmh SE 8.3 mph13.4 kmh 30.05 in1017.6 mb 0.00 in0.0 mm 0.00 in0.0 mm 0.01 in0.3 mm
09:55 AM 51.4°F10.8°C 47.1°F8.4°C 85% 5.4 mph SE8.7 kmh SE 7.6 mph12.2 kmh 30.04 in1017.3 mb 0.00 in0.0 mm 0.00 in0.0 mm 0.01 in0.3 mm
09:59 AM 51.4°F10.8°C 46.8°F8.2°C 84% 8.3 mph S13.4 kmh S 11.4 mph18.3 kmh 30.04 in1017.3 mb 0.00 in0.0 mm 0.00 in0.0 mm 0.01 in0.3 mm
10:03 AM 51.4°F10.8°C 46.8°F8.2°C 84% 3.8 mph S6.1 kmh S 4.5 mph7.2 kmh 30.03 in1016.9 mb 0.00 in0.0 mm 0.00 in0.0 mm 0.01 in0.3 mm
10:07 AM 51.8°F11.0°C 47.1°F8.4°C 84% 5.4 mph SE8.7 kmh SE 6.9 mph11.1 kmh 30.04 in1017.3 mb 0.00 in0.0 mm 0.00 in0.0 mm 0.01 in0.3 mm
10:11 AM 52.0°F11.1°C 47.6°F8.7°C 85% 5.4 mph SE8.7 kmh SE 6.0 mph9.7 kmh 30.04 in1017.3 mb 0.00 in0.0 mm 0.00 in0.0 mm 0.01 in0.3 mm
10:13 AM 52.0°F11.1°C 47.6°F8.7°C 85% 3.8 mph SE6.1 kmh SE 5.4 mph8.7 kmh 30.03 in1016.9 mb 0.00 in0.0 mm 0.00 in0.0 mm 0.01 in0.3 mm
10:17 AM 52.2°F11.2°C 47.8°F8.8°C 85% 3.8 mph SE6.1 kmh SE 4.5 mph7.2 kmh 30.03 in1016.9 mb 0.00 in0.0 mm 0.00 in0.0 mm 0.01 in0.3 mm
10:19 AM 52.2°F11.2°C 47.8°F8.8°C 85% 5.4 mph SE8.7 kmh SE 6.9 mph11.1 kmh 30.02 in1016.6 mb 0.00 in0.0 mm 0.00 in0.0 mm 0.01 in0.3 mm
10:23 AM 52.3°F11.3°C 47.7°F8.7°C 84% 4.5 mph S7.2 kmh S 6.9 mph11.1 kmh 30.02 in1016.6 mb 0.00 in0.0 mm 0.00 in0.0 mm 0.01 in0.3 mm
10:27 AM 52.3°F11.3°C 47.7°F8.7°C 84% 5.4 mph SSE8.7 kmh SSE 6.9 mph11.1 kmh 30.03 in1016.9 mb 0.00 in0.0 mm 0.00 in0.0 mm 0.01 in0.3 mm
10:31 AM 52.5°F11.4°C 47.8°F8.8°C 84% 6.0 mph S9.7 kmh S 7.6 mph12.2 kmh 30.02 in1016.6 mb 0.00 in0.0 mm 0.00 in0.0 mm 0.01 in0.3 mm
10:35 AM 52.7°F11.5°C 48.0°F8.9°C 84% 3.1 mph S5.0 kmh S 3.8 mph6.1 kmh 30.01 in1016.3 mb 0.00 in0.0 mm 0.00 in0.0 mm 0.01 in0.3 mm
10:39 AM 52.9°F11.6°C 48.2°F9.0°C 84% 4.5 mph S7.2 kmh S 6.0 mph9.7 kmh 30.02 in1016.6 mb 0.00 in0.0 mm 0.00 in0.0 mm 0.01 in0.3 mm
10:43 AM 53.1°F11.7°C 48.4°F9.1°C 84% 2.2 mph S3.5 kmh S 3.8 mph6.1 kmh 30.02 in1016.6 mb 0.00 in0.0 mm 0.00 in0.0 mm 0.01 in0.3 mm
10:47 AM 53.2°F11.8°C 48.5°F9.2°C 84% 3.1 mph SE5.0 kmh SE 3.8 mph6.1 kmh 30.02 in1016.6 mb 0.00 in0.0 mm 0.00 in0.0 mm 0.01 in0.3 mm
10:51 AM 53.2°F11.8°C 48.2°F9.0°C 83% 4.5 mph SE7.2 kmh SE 6.9 mph11.1 kmh 30.01 in1016.3 mb 0.00 in0.0 mm 0.00 in0.0 mm 0.01 in0.3 mm
10:55 AM 53.2°F11.8°C 48.2°F9.0°C 83% 5.4 mph SE8.7 kmh SE 7.6 mph12.2 kmh 30.01 in1016.3 mb 0.00 in0.0 mm 0.00 in0.0 mm 0.01 in0.3 mm
10:57 AM 53.2°F11.8°C 48.2°F9.0°C 83% 3.8 mph SSE6.1 kmh SSE 6.0 mph9.7 kmh 30.01 in1016.3 mb 0.00 in0.0 mm 0.00 in0.0 mm 0.01 in0.3 mm
11:01 AM 53.2°F11.8°C 48.2°F9.0°C 83% 4.5 mph S7.2 kmh S 6.0 mph9.7 kmh 30.00 in1015.9 mb 0.00 in0.0 mm 0.00 in0.0 mm 0.01 in0.3 mm
11:03 AM 53.2°F11.8°C 47.9°F8.8°C 82% 4.5 mph S7.2 kmh S 6.0 mph9.7 kmh 30.01 in1016.3 mb 0.00 in0.0 mm 0.00 in0.0 mm 0.01 in0.3 mm
11:07 AM 53.2°F11.8°C 47.9°F8.8°C 82% 5.4 mph SE8.7 kmh SE 9.2 mph14.8 kmh 30.00 in1015.9 mb 0.00 in0.0 mm 0.00 in0.0 mm 0.01 in0.3 mm
11:09 AM 53.2°F11.8°C 47.9°F8.8°C 82% 4.5 mph SE7.2 kmh SE 6.0 mph9.7 kmh 30.00 in1015.9 mb 0.00 in0.0 mm 0.00 in0.0 mm 0.01 in0.3 mm
11:13 AM 53.2°F11.8°C 47.9°F8.8°C 82% 3.8 mph S6.1 kmh S 4.5 mph7.2 kmh 30.00 in1015.9 mb 0.00 in0.0 mm 0.00 in0.0 mm 0.01 in0.3 mm
11:17 AM 53.4°F11.9°C 48.1°F8.9°C 82% 3.8 mph SE6.1 kmh SE 6.9 mph11.1 kmh 29.99 in1015.6 mb 0.00 in0.0 mm 0.00 in0.0 mm 0.01 in0.3 mm
11:21 AM 53.6°F12.0°C 48.2°F9.0°C 82% 3.1 mph SE5.0 kmh SE 5.4 mph8.7 kmh 30.00 in1015.9 mb 0.00 in0.0 mm 0.00 in0.0 mm 0.01 in0.3 mm
11:23 AM 53.8°F12.1°C 48.4°F9.1°C 82% 3.8 mph SE6.1 kmh SE 5.4 mph8.7 kmh 29.99 in1015.6 mb 0.00 in0.0 mm 0.00 in0.0 mm 0.01 in0.3 mm
11:27 AM 53.8°F12.1°C 48.4°F9.1°C 82% 4.5 mph S7.2 kmh S 6.0 mph9.7 kmh 30.00 in1015.9 mb 0.00 in0.0 mm 0.00 in0.0 mm 0.01 in0.3 mm
11:29 AM 54.0°F12.2°C 48.3°F9.1°C 81% 4.5 mph S7.2 kmh S 6.0 mph9.7 kmh 29.99 in1015.6 mb 0.00 in0.0 mm 0.00 in0.0 mm 0.01 in0.3 mm
11:33 AM 54.1°F12.3°C 48.4°F9.1°C 81% 3.8 mph SE6.1 kmh SE 4.5 mph7.2 kmh 30.00 in1015.9 mb 0.00 in0.0 mm 0.00 in0.0 mm 0.01 in0.3 mm
11:38 AM 55.0°F12.8°C 49.0°F9.4°C 80% 4.5 mph S7.2 kmh S 6.0 mph9.7 kmh 29.98 in1015.2 mb 0.00 in0.0 mm 0.00 in0.0 mm 0.01 in0.3 mm
11:42 AM 55.8°F13.2°C 49.7°F9.8°C 80% 6.0 mph S9.7 kmh S 7.6 mph12.2 kmh 29.99 in1015.6 mb 0.00 in0.0 mm 0.00 in0.0 mm 0.01 in0.3 mm
11:46 AM 56.3°F13.5°C 49.9°F9.9°C 79% 3.1 mph S5.0 kmh S 3.8 mph6.1 kmh 29.98 in1015.2 mb 0.00 in0.0 mm 0.00 in0.0 mm 0.01 in0.3 mm
11:50 AM 56.7°F13.7°C 49.9°F9.9°C 78% 6.0 mph S9.7 kmh S 6.9 mph11.1 kmh 29.98 in1015.2 mb 0.00 in0.0 mm 0.00 in0.0 mm 0.01 in0.3 mm
11:54 AM 57.2°F14.0°C 50.1°F10.1°C 77% 6.9 mph S11.1 kmh S 7.6 mph12.2 kmh 29.97 in1014.9 mb 0.00 in0.0 mm 0.00 in0.0 mm 0.01 in0.3 mm
11:58 AM 57.2°F14.0°C 49.4°F9.7°C 75% 7.6 mph S12.2 kmh S 9.2 mph14.8 kmh 29.97 in1014.9 mb 0.00 in0.0 mm 0.00 in0.0 mm 0.01 in0.3 mm
12:02 PM 57.2°F14.0°C 49.4°F9.7°C 75% 4.5 mph S7.2 kmh S 6.0 mph9.7 kmh 29.97 in1014.9 mb 0.00 in0.0 mm 0.00 in0.0 mm 0.01 in0.3 mm
12:06 PM 57.2°F14.0°C 49.4°F9.7°C 75% 4.5 mph S7.2 kmh S 6.0 mph9.7 kmh 29.97 in1014.9 mb 0.00 in0.0 mm 0.00 in0.0 mm 0.01 in0.3 mm
12:08 PM 57.2°F14.0°C 49.4°F9.7°C 75% 4.5 mph S7.2 kmh S 6.0 mph9.7 kmh 29.97 in1014.9 mb 0.00 in0.0 mm 0.00 in0.0 mm 0.01 in0.3 mm
12:12 PM 57.7°F14.3°C 49.5°F9.7°C 74% 5.4 mph S8.7 kmh S 6.0 mph9.7 kmh 29.97 in1014.9 mb 0.00 in0.0 mm 0.00 in0.0 mm 0.01 in0.3 mm
12:16 PM 57.9°F14.4°C 49.3°F9.6°C 73% 5.4 mph S8.7 kmh S 6.9 mph11.1 kmh 29.96 in1014.6 mb 0.00 in0.0 mm 0.00 in0.0 mm 0.01 in0.3 mm
12:20 PM 57.9°F14.4°C 49.3°F9.6°C 73% 4.5 mph S7.2 kmh S 6.9 mph11.1 kmh 29.96 in1014.6 mb 0.00 in0.0 mm 0.00 in0.0 mm 0.01 in0.3 mm
12:24 PM 57.7°F14.3°C 48.8°F9.3°C 72% 4.5 mph S7.2 kmh S 5.4 mph8.7 kmh 29.97 in1014.9 mb 0.00 in0.0 mm 0.00 in0.0 mm 0.01 in0.3 mm
12:28 PM 57.6°F14.2°C 48.6°F9.2°C 72% 3.1 mph SW5.0 kmh SW 3.8 mph6.1 kmh 29.97 in1014.9 mb 0.00 in0.0 mm 0.00 in0.0 mm 0.01 in0.3 mm
12:32 PM 56.7°F13.7°C 47.7°F8.7°C 72% 6.0 mph NW9.7 kmh NW 8.3 mph13.4 kmh 29.98 in1015.2 mb 0.00 in0.0 mm 0.00 in0.0 mm 0.04 in1.0 mm
12:36 PM 54.9°F12.7°C 45.6°F7.6°C 71% 6.0 mph SW9.7 kmh SW 9.8 mph15.8 kmh 29.98 in1015.2 mb 0.02 in0.5 mm 0.35 in8.9 mm 0.09 in2.3 mm
12:40 PM 53.4°F11.9°C 45.3°F7.4°C 74% 7.6 mph W12.2 kmh W 12.1 mph19.5 kmh 29.98 in1015.2 mb 0.08 in2.0 mm 0.89 in22.6 mm 0.12 in3.0 mm
12:45 PM 52.3°F11.3°C 45.0°F7.2°C 76% 4.5 mph W7.2 kmh W 6.9 mph11.1 kmh 29.98 in1015.2 mb 0.11 in2.8 mm 0.28 in7.1 mm 0.14 in3.6 mm
12:49 PM 51.8°F11.0°C 45.5°F7.5°C 79% 3.1 mph W5.0 kmh W 5.4 mph8.7 kmh 29.98 in1015.2 mb 0.13 in3.3 mm 0.35 in8.9 mm 0.15 in3.8 mm
12:53 PM 51.4°F10.8°C 45.5°F7.5°C 80% 8.3 mph W13.4 kmh W 9.8 mph15.8 kmh 29.97 in1014.9 mb 0.14 in3.6 mm 0.18 in4.6 mm 0.15 in3.8 mm
12:57 PM 51.1°F10.6°C 45.1°F7.3°C 80% 3.8 mph SW6.1 kmh SW 4.5 mph7.2 kmh 29.98 in1015.2 mb 0.14 in3.6 mm 0.00 in0.0 mm 0.17 in4.3 mm
01:01 PM 51.1°F10.6°C 45.1°F7.3°C 80% 3.1 mph W5.0 kmh W 4.5 mph7.2 kmh 29.98 in1015.2 mb 0.15 in3.8 mm 0.01 in0.3 mm 0.17 in4.3 mm
01:05 PM 51.1°F10.6°C 45.5°F7.5°C 81% 5.4 mph WSW8.7 kmh WSW 6.0 mph9.7 kmh 29.98 in1015.2 mb 0.15 in3.8 mm 0.00 in0.0 mm 0.17 in4.3 mm
01:07 PM 51.1°F10.6°C 45.5°F7.5°C 81% 0.7 mph SW1.1 kmh SW 1.6 mph2.6 kmh 29.97 in1014.9 mb 0.15 in3.8 mm 0.00 in0.0 mm 0.18 in4.6 mm
01:13 PM 50.9°F10.5°C 45.3°F7.4°C 81% 3.1 mph SW5.0 kmh SW 4.5 mph7.2 kmh 29.97 in1014.9 mb 0.17 in4.3 mm 0.12 in3.0 mm 0.18 in4.6 mm
01:17 PM 50.9°F10.5°C 45.3°F7.4°C 81% 1.6 mph SW2.6 kmh SW 2.2 mph3.5 kmh 29.98 in1015.2 mb 0.17 in4.3 mm 0.00 in0.0 mm 0.18 in4.6 mm
01:23 PM 50.9°F10.5°C 45.3°F7.4°C 81% 3.8 mph NW6.1 kmh NW 5.4 mph8.7 kmh 29.97 in1014.9 mb 0.17 in4.3 mm 0.00 in0.0 mm 0.18 in4.6 mm
01:27 PM 50.7°F10.4°C 45.1°F7.3°C 81% 2.2 mph S3.5 kmh S 3.1 mph5.0 kmh 29.97 in1014.9 mb 0.17 in4.3 mm 0.00 in0.0 mm 0.18 in4.6 mm
01:31 PM 50.7°F10.4°C 45.1°F7.3°C 81% 1.6 mph SSW2.6 kmh SSW 2.2 mph3.5 kmh 29.97 in1014.9 mb 0.14 in3.6 mm 0.00 in0.0 mm 0.18 in4.6 mm
01:35 PM 50.7°F10.4°C 44.8°F7.1°C 80% 3.1 mph SW5.0 kmh SW 3.8 mph6.1 kmh 29.97 in1014.9 mb 0.08 in2.0 mm 0.00 in0.0 mm 0.18 in4.6 mm
01:39 PM 50.7°F10.4°C 45.1°F7.3°C 81% 2.2 mph SSW3.5 kmh SSW 3.1 mph5.0 kmh 29.97 in1014.9 mb 0.06 in1.5 mm 0.00 in0.0 mm 0.18 in4.6 mm
01:43 PM 50.5°F10.3°C 44.9°F7.2°C 81% 1.6 mph S2.6 kmh S 2.2 mph3.5 kmh 29.97 in1014.9 mb 0.04 in1.0 mm 0.00 in0.0 mm 0.18 in4.6 mm
01:47 PM 50.7°F10.4°C 45.1°F7.3°C 81% 2.2 mph S3.5 kmh S 2.2 mph3.5 kmh 29.97 in1014.9 mb 0.02 in0.5 mm 0.00 in0.0 mm 0.18 in4.6 mm
01:51 PM 50.7°F10.4°C 45.1°F7.3°C 81% 2.2 mph S3.5 kmh S 3.1 mph5.0 kmh 29.97 in1014.9 mb 0.02 in0.5 mm 0.00 in0.0 mm 0.18 in4.6 mm
01:55 PM 50.7°F10.4°C 45.1°F7.3°C 81% 2.2 mph SW3.5 kmh SW 3.1 mph5.0 kmh 29.96 in1014.6 mb 0.01 in0.3 mm 0.00 in0.0 mm 0.18 in4.6 mm
01:59 PM 50.7°F10.4°C 45.4°F7.4°C 82% 1.6 mph S2.6 kmh S 2.2 mph3.5 kmh 29.96 in1014.6 mb 0.01 in0.3 mm 0.00 in0.0 mm 0.18 in4.6 mm
02:03 PM 50.7°F10.4°C 45.4°F7.4°C 82% 1.6 mph SSW2.6 kmh SSW 2.2 mph3.5 kmh 29.95 in1014.2 mb 0.01 in0.3 mm 0.00 in0.0 mm 0.18 in4.6 mm
02:14 PM 50.4°F10.2°C 44.8°F7.1°C 81% 3.8 mph SSW6.1 kmh SSW 4.5 mph7.2 kmh 29.96 in1014.6 mb 0.00 in0.0 mm 0.00 in0.0 mm 0.18 in4.6 mm
02:17 PM 50.5°F10.3°C 44.9°F7.2°C 81% 4.5 mph S7.2 kmh S 6.0 mph9.7 kmh 29.96 in1014.6 mb 0.00 in0.0 mm 0.00 in0.0 mm 0.18 in4.6 mm
02:21 PM 50.7°F10.4°C 45.1°F7.3°C 81% 3.8 mph SW6.1 kmh SW 4.5 mph7.2 kmh 29.96 in1014.6 mb 0.00 in0.0 mm 0.00 in0.0 mm 0.18 in4.6 mm
02:25 PM 51.1°F10.6°C 45.5°F7.5°C 81% 3.1 mph SW5.0 kmh SW 3.8 mph6.1 kmh 29.96 in1014.6 mb 0.00 in0.0 mm 0.00 in0.0 mm 0.18 in4.6 mm
02:29 PM 51.6°F10.9°C 46.0°F7.8°C 81% 5.4 mph SW8.7 kmh SW 6.9 mph11.1 kmh 29.96 in1014.6 mb 0.00 in0.0 mm 0.00 in0.0 mm 0.18 in4.6 mm
02:33 PM 51.8°F11.0°C 45.2°F7.3°C 78% 3.1 mph SW5.0 kmh SW 3.8 mph6.1 kmh 29.95 in1014.2 mb 0.00 in0.0 mm 0.00 in0.0 mm 0.18 in4.6 mm
02:38 PM 52.3°F11.3°C 44.7°F7.1°C 75% 7.6 mph WSW12.2 kmh WSW 9.2 mph14.8 kmh 29.96 in1014.6 mb 0.00 in0.0 mm 0.00 in0.0 mm 0.18 in4.6 mm
02:42 PM 52.9°F11.6°C 44.8°F7.1°C 74% 5.4 mph SW8.7 kmh SW 7.6 mph12.2 kmh 29.96 in1014.6 mb 0.00 in0.0 mm 0.00 in0.0 mm 0.18 in4.6 mm
02:46 PM 53.2°F11.8°C 44.5°F6.9°C 72% 7.6 mph W12.2 kmh W 9.2 mph14.8 kmh 29.95 in1014.2 mb 0.00 in0.0 mm 0.00 in0.0 mm 0.18 in4.6 mm
02:50 PM 53.6°F12.0°C 44.4°F6.9°C 71% 7.6 mph W12.2 kmh W 9.8 mph15.8 kmh 29.95 in1014.2 mb 0.00 in0.0 mm 0.00 in0.0 mm 0.18 in4.6 mm
02:54 PM 53.6°F12.0°C 44.1°F6.7°C 70% 6.9 mph SW11.1 kmh SW 9.2 mph14.8 kmh 29.95 in1014.2 mb 0.00 in0.0 mm 0.00 in0.0 mm 0.18 in4.6 mm
02:58 PM 53.8°F12.1°C 43.9°F6.6°C 69% 2.2 mph S3.5 kmh S 3.8 mph6.1 kmh 29.96 in1014.6 mb 0.00 in0.0 mm 0.00 in0.0 mm 0.18 in4.6 mm
03:02 PM 53.8°F12.1°C 44.2°F6.8°C 70% 6.0 mph SW9.7 kmh SW 7.6 mph12.2 kmh 29.95 in1014.2 mb 0.00 in0.0 mm 0.00 in0.0 mm 0.18 in4.6 mm
03:06 PM 54.0°F12.2°C 43.6°F6.4°C 68% 3.8 mph SW6.1 kmh SW 5.4 mph8.7 kmh 29.96 in1014.6 mb 0.00 in0.0 mm 0.00 in0.0 mm 0.18 in4.6 mm
03:10 PM 54.0°F12.2°C 43.3°F6.3°C 67% 3.8 mph SW6.1 kmh SW 6.9 mph11.1 kmh 29.95 in1014.2 mb 0.00 in0.0 mm 0.00 in0.0 mm 0.18 in4.6 mm
03:18 PM 53.4°F11.9°C 42.0°F5.6°C 65% 5.4 mph SW8.7 kmh SW 6.9 mph11.1 kmh 29.95 in1014.2 mb 0.00 in0.0 mm 0.00 in0.0 mm 0.18 in4.6 mm
03:22 PM 53.1°F11.7°C 41.6°F5.3°C 65% 6.9 mph W11.1 kmh W 10.7 mph17.2 kmh 29.94 in1013.9 mb 0.00 in0.0 mm 0.00 in0.0 mm 0.18 in4.6 mm
03:26 PM 52.9°F11.6°C 41.4°F5.2°C 65% 3.8 mph SSW6.1 kmh SSW 6.0 mph9.7 kmh 29.94 in1013.9 mb 0.00 in0.0 mm 0.00 in0.0 mm 0.18 in4.6 mm
03:30 PM 52.7°F11.5°C 41.7°F5.4°C 66% 4.5 mph SW7.2 kmh SW 8.3 mph13.4 kmh 29.95 in1014.2 mb 0.00 in0.0 mm 0.00 in0.0 mm 0.18 in4.6 mm
03:34 PM 52.3°F11.3°C 41.7°F5.4°C 67% 6.9 mph WSW11.1 kmh WSW 8.3 mph13.4 kmh 29.95 in1014.2 mb 0.00 in0.0 mm 0.00 in0.0 mm 0.18 in4.6 mm
03:39 PM 52.2°F11.2°C 41.5°F5.3°C 67% 6.0 mph SW9.7 kmh SW 7.6 mph12.2 kmh 29.96 in1014.6 mb 0.00 in0.0 mm 0.00 in0.0 mm 0.18 in4.6 mm
03:43 PM 52.2°F11.2°C 41.9°F5.5°C 68% 4.5 mph SW7.2 kmh SW 6.0 mph9.7 kmh 29.95 in1014.2 mb 0.00 in0.0 mm 0.00 in0.0 mm 0.18 in4.6 mm
03:47 PM 52.0°F11.1°C 41.8°F5.4°C 68% 3.8 mph SW6.1 kmh SW 5.4 mph8.7 kmh 29.96 in1014.6 mb 0.00 in0.0 mm 0.00 in0.0 mm 0.18 in4.6 mm
03:51 PM 52.0°F11.1°C 41.8°F5.4°C 68% 6.0 mph S9.7 kmh S 6.9 mph11.1 kmh 29.96 in1014.6 mb 0.00 in0.0 mm 0.00 in0.0 mm 0.18 in4.6 mm
03:55 PM 51.8°F11.0°C 41.6°F5.3°C 68% 3.8 mph S6.1 kmh S 4.5 mph7.2 kmh 29.96 in1014.6 mb 0.00 in0.0 mm 0.00 in0.0 mm 0.18 in4.6 mm
03:59 PM 51.8°F11.0°C 41.6°F5.3°C 68% 3.8 mph SW6.1 kmh SW 4.5 mph7.2 kmh 29.96 in1014.6 mb 0.00 in0.0 mm 0.00 in0.0 mm 0.18 in4.6 mm
04:03 PM 51.8°F11.0°C 41.6°F5.3°C 68% 3.8 mph S6.1 kmh S 4.5 mph7.2 kmh 29.96 in1014.6 mb 0.00 in0.0 mm 0.00 in0.0 mm 0.18 in4.6 mm
04:07 PM 51.8°F11.0°C 41.2°F5.1°C 67% 3.1 mph WNW5.0 kmh WNW 4.5 mph7.2 kmh 29.96 in1014.6 mb 0.00 in0.0 mm 0.00 in0.0 mm 0.18 in4.6 mm
04:09 PM 51.8°F11.0°C 41.2°F5.1°C 67% 3.1 mph SSW5.0 kmh SSW 4.5 mph7.2 kmh 29.96 in1014.6 mb 0.00 in0.0 mm 0.00 in0.0 mm 0.18 in4.6 mm
04:17 PM 51.8°F11.0°C 41.2°F5.1°C 67% 2.2 mph W3.5 kmh W 3.1 mph5.0 kmh 29.97 in1014.9 mb 0.00 in0.0 mm 0.00 in0.0 mm 0.18 in4.6 mm
04:21 PM 51.6°F10.9°C 41.4°F5.2°C 68% 5.4 mph W8.7 kmh W 6.9 mph11.1 kmh 29.97 in1014.9 mb 0.00 in0.0 mm 0.00 in0.0 mm 0.18 in4.6 mm
04:25 PM 51.6°F10.9°C 41.0°F5.0°C 67% 9.8 mph W15.8 kmh W 13.0 mph20.9 kmh 29.97 in1014.9 mb 0.00 in0.0 mm 0.00 in0.0 mm 0.18 in4.6 mm
04:29 PM 51.6°F10.9°C 40.6°F4.8°C 66% 6.0 mph W9.7 kmh W 8.3 mph13.4 kmh 29.96 in1014.6 mb 0.00 in0.0 mm 0.00 in0.0 mm 0.18 in4.6 mm
04:38 PM 51.4°F10.8°C 40.9°F4.9°C 67% 6.0 mph SW9.7 kmh SW 7.6 mph12.2 kmh 29.96 in1014.6 mb 0.00 in0.0 mm 0.00 in0.0 mm 0.18 in4.6 mm
04:41 PM 51.4°F10.8°C 40.9°F4.9°C 67% 4.5 mph WSW7.2 kmh WSW 6.0 mph9.7 kmh 29.97 in1014.9 mb 0.00 in0.0 mm 0.00 in0.0 mm 0.18 in4.6 mm
04:45 PM 51.3°F10.7°C 40.7°F4.8°C 67% 3.1 mph SW5.0 kmh SW 4.5 mph7.2 kmh 29.97 in1014.9 mb 0.00 in0.0 mm 0.00 in0.0 mm 0.18 in4.6 mm
04:49 PM 51.3°F10.7°C 41.1°F5.1°C 68% 6.0 mph W9.7 kmh W 11.4 mph18.3 kmh 29.98 in1015.2 mb 0.00 in0.0 mm 0.00 in0.0 mm 0.18 in4.6 mm
04:53 PM 51.3°F10.7°C 41.1°F5.1°C 68% 2.2 mph W3.5 kmh W 3.8 mph6.1 kmh 29.97 in1014.9 mb 0.00 in0.0 mm 0.00 in0.0 mm 0.18 in4.6 mm
04:57 PM 51.1°F10.6°C 40.9°F4.9°C 68% 4.5 mph S7.2 kmh S 8.3 mph13.4 kmh 29.97 in1014.9 mb 0.00 in0.0 mm 0.00 in0.0 mm 0.18 in4.6 mm
05:01 PM 51.1°F10.6°C 41.3°F5.2°C 69% 3.1 mph W5.0 kmh W 4.5 mph7.2 kmh 29.97 in1014.9 mb 0.00 in0.0 mm 0.00 in0.0 mm 0.18 in4.6 mm
05:06 PM 51.1°F10.6°C 40.9°F4.9°C 68% 8.3 mph SW13.4 kmh SW 11.4 mph18.3 kmh 29.97 in1014.9 mb 0.00 in0.0 mm 0.00 in0.0 mm 0.18 in4.6 mm
05:09 PM 51.1°F10.6°C 40.9°F4.9°C 68% 9.2 mph W14.8 kmh W 13.0 mph20.9 kmh 29.98 in1015.2 mb 0.00 in0.0 mm 0.00 in0.0 mm 0.18 in4.6 mm
05:13 PM 51.1°F10.6°C 40.5°F4.7°C 67% 5.4 mph S8.7 kmh S 6.9 mph11.1 kmh 29.98 in1015.2 mb 0.00 in0.0 mm 0.00 in0.0 mm 0.18 in4.6 mm
05:17 PM 50.9°F10.5°C 40.3°F4.6°C 67% 5.4 mph SW8.7 kmh SW 8.3 mph13.4 kmh 29.98 in1015.2 mb 0.00 in0.0 mm 0.00 in0.0 mm 0.18 in4.6 mm
05:22 PM 50.7°F10.4°C 40.2°F4.6°C 67% 7.6 mph SW12.2 kmh SW 9.8 mph15.8 kmh 29.98 in1015.2 mb 0.00 in0.0 mm 0.00 in0.0 mm 0.18 in4.6 mm
05:26 PM 50.4°F10.2°C 39.8°F4.3°C 67% 7.6 mph SW12.2 kmh SW 13.0 mph20.9 kmh 29.99 in1015.6 mb 0.00 in0.0 mm 0.00 in0.0 mm 0.18 in4.6 mm
05:29 PM 50.2°F10.1°C 39.7°F4.3°C 67% 2.2 mph SW3.5 kmh SW 3.1 mph5.0 kmh 29.99 in1015.6 mb 0.00 in0.0 mm 0.00 in0.0 mm 0.18 in4.6 mm
05:34 PM 49.8°F9.9°C 39.7°F4.3°C 68% 7.6 mph SW12.2 kmh SW 9.8 mph15.8 kmh 29.99 in1015.6 mb 0.00 in0.0 mm 0.00 in0.0 mm 0.18 in4.6 mm
05:38 PM 49.6°F9.8°C 39.9°F4.4°C 69% 3.8 mph WNW6.1 kmh WNW 4.5 mph7.2 kmh 29.99 in1015.6 mb 0.00 in0.0 mm 0.00 in0.0 mm 0.18 in4.6 mm
05:42 PM 49.3°F9.6°C 39.9°F4.4°C 70% 5.4 mph W8.7 kmh W 6.9 mph11.1 kmh 29.99 in1015.6 mb 0.00 in0.0 mm 0.00 in0.0 mm 0.18 in4.6 mm
05:47 PM 49.1°F9.5°C 39.7°F4.3°C 70% 1.6 mph S2.6 kmh S 2.2 mph3.5 kmh 29.99 in1015.6 mb 0.00 in0.0 mm 0.00 in0.0 mm 0.18 in4.6 mm
05:50 PM 48.9°F9.4°C 39.6°F4.2°C 70% 3.1 mph W5.0 kmh W 3.8 mph6.1 kmh 29.99 in1015.6 mb 0.00 in0.0 mm 0.00 in0.0 mm 0.18 in4.6 mm
05:54 PM 48.7°F9.3°C 39.4°F4.1°C 70% 2.2 mph SW3.5 kmh SW 3.8 mph6.1 kmh 29.99 in1015.6 mb 0.00 in0.0 mm 0.00 in0.0 mm 0.18 in4.6 mm
05:58 PM 48.4°F9.1°C 39.1°F3.9°C 70% Calm Calm 1.6 mph2.6 kmh 29.99 in1015.6 mb 0.00 in0.0 mm 0.00 in0.0 mm 0.18 in4.6 mm
06:02 PM 48.0°F8.9°C 38.7°F3.7°C 70% 1.6 mph WSW2.6 kmh WSW 2.2 mph3.5 kmh 29.99 in1015.6 mb 0.00 in0.0 mm 0.00 in0.0 mm 0.18 in4.6 mm
06:07 PM 47.8°F8.8°C 38.9°F3.8°C 71% 3.8 mph SW6.1 kmh SW 4.5 mph7.2 kmh 30.00 in1015.9 mb 0.00 in0.0 mm 0.00 in0.0 mm 0.18 in4.6 mm
06:14 PM 47.7°F8.7°C 38.7°F3.7°C 71% 3.1 mph WNW5.0 kmh WNW 3.8 mph6.1 kmh 30.00 in1015.9 mb 0.00 in0.0 mm 0.00 in0.0 mm 0.18 in4.6 mm
06:19 PM 47.7°F8.7°C 38.7°F3.7°C 71% 3.8 mph SW6.1 kmh SW 5.4 mph8.7 kmh 30.00 in1015.9 mb 0.00 in0.0 mm 0.00 in0.0 mm 0.18 in4.6 mm
06:23 PM 47.7°F8.7°C 38.7°F3.7°C 71% 1.6 mph SW2.6 kmh SW 2.2 mph3.5 kmh 30.00 in1015.9 mb 0.00 in0.0 mm 0.00 in0.0 mm 0.18 in4.6 mm
06:27 PM 47.7°F8.7°C 38.7°F3.7°C 71% 3.1 mph SW5.0 kmh SW 5.4 mph8.7 kmh 30.00 in1015.9 mb 0.00 in0.0 mm 0.00 in0.0 mm 0.18 in4.6 mm
06:30 PM 47.7°F8.7°C 39.1°F3.9°C 72% 2.2 mph SW3.5 kmh SW 3.1 mph5.0 kmh 30.00 in1015.9 mb 0.00 in0.0 mm 0.00 in0.0 mm 0.18 in4.6 mm
06:35 PM 47.8°F8.8°C 39.3°F4.1°C 72% 3.1 mph SW5.0 kmh SW 3.8 mph6.1 kmh 30.00 in1015.9 mb 0.00 in0.0 mm 0.00 in0.0 mm 0.18 in4.6 mm
06:39 PM 47.8°F8.8°C 38.9°F3.8°C 71% 2.2 mph SW3.5 kmh SW 5.4 mph8.7 kmh 30.00 in1015.9 mb 0.00 in0.0 mm 0.00 in0.0 mm 0.18 in4.6 mm
06:43 PM 48.0°F8.9°C 39.1°F3.9°C 71% 3.1 mph SW5.0 kmh SW 3.8 mph6.1 kmh 30.00 in1015.9 mb 0.00 in0.0 mm 0.00 in0.0 mm 0.18 in4.6 mm
06:47 PM 47.8°F8.8°C 38.9°F3.8°C 71% 2.2 mph WSW3.5 kmh WSW 3.1 mph5.0 kmh 30.00 in1015.9 mb 0.00 in0.0 mm 0.00 in0.0 mm 0.18 in4.6 mm
06:51 PM 47.8°F8.8°C 38.9°F3.8°C 71% 5.4 mph SW8.7 kmh SW 6.0 mph9.7 kmh 30.01 in1016.3 mb 0.00 in0.0 mm 0.00 in0.0 mm 0.18 in4.6 mm
06:55 PM 47.7°F8.7°C 38.7°F3.7°C 71% 2.2 mph SW3.5 kmh SW 3.1 mph5.0 kmh 30.01 in1016.3 mb 0.00 in0.0 mm 0.00 in0.0 mm 0.18 in4.6 mm
06:59 PM 47.7°F8.7°C 38.7°F3.7°C 71% 1.6 mph SSW2.6 kmh SSW 2.2 mph3.5 kmh 30.01 in1016.3 mb 0.00 in0.0 mm 0.00 in0.0 mm 0.18 in4.6 mm
07:03 PM 47.5°F8.6°C 38.6°F3.7°C 71% 1.6 mph SW2.6 kmh SW 3.1 mph5.0 kmh 30.00 in1015.9 mb 0.00 in0.0 mm 0.00 in0.0 mm 0.18 in4.6 mm
07:07 PM 47.3°F8.5°C 38.4°F3.6°C 71% Calm Calm -- 30.01 in1016.3 mb 0.00 in0.0 mm 0.00 in0.0 mm 0.18 in4.6 mm
07:11 PM 47.1°F8.4°C 38.2°F3.4°C 71% 0.7 mph SW1.1 kmh SW 1.6 mph2.6 kmh 30.01 in1016.3 mb 0.00 in0.0 mm 0.00 in0.0 mm 0.18 in4.6 mm
07:13 PM 47.1°F8.4°C 38.2°F3.4°C 71% 0.7 mph SW1.1 kmh SW 1.6 mph2.6 kmh 30.01 in1016.3 mb 0.00 in0.0 mm 0.00 in0.0 mm 0.18 in4.6 mm
07:17 PM 46.8°F8.2°C 37.9°F3.3°C 71% 1.6 mph SW2.6 kmh SW 3.1 mph5.0 kmh 30.01 in1016.3 mb 0.00 in0.0 mm 0.00 in0.0 mm 0.18 in4.6 mm
07:21 PM 46.8°F8.2°C 38.2°F3.4°C 72% 2.2 mph SW3.5 kmh SW 3.1 mph5.0 kmh 30.01 in1016.3 mb 0.00 in0.0 mm 0.00 in0.0 mm 0.18 in4.6 mm
07:26 PM 46.4°F8.0°C 37.5°F3.1°C 71% 2.2 mph SW3.5 kmh SW 3.8 mph6.1 kmh 30.01 in1016.3 mb 0.00 in0.0 mm 0.00 in0.0 mm 0.18 in4.6 mm
07:29 PM 46.0°F7.8°C 37.2°F2.9°C 71% 3.1 mph SW5.0 kmh SW 3.8 mph6.1 kmh 30.01 in1016.3 mb 0.00 in0.0 mm 0.00 in0.0 mm 0.18 in4.6 mm
07:33 PM 45.9°F7.7°C 37.4°F3.0°C 72% 1.6 mph SW2.6 kmh SW 2.2 mph3.5 kmh 30.02 in1016.6 mb 0.00 in0.0 mm 0.00 in0.0 mm 0.18 in4.6 mm
07:38 PM 45.9°F7.7°C 37.4°F3.0°C 72% 3.1 mph S5.0 kmh S 3.8 mph6.1 kmh 30.01 in1016.3 mb 0.00 in0.0 mm 0.00 in0.0 mm 0.18 in4.6 mm
07:42 PM 45.9°F7.7°C 37.7°F3.2°C 73% 1.6 mph SW2.6 kmh SW 2.2 mph3.5 kmh 30.02 in1016.6 mb 0.00 in0.0 mm 0.00 in0.0 mm 0.18 in4.6 mm
07:47 PM 45.7°F7.6°C 37.5°F3.1°C 73% 2.2 mph SW3.5 kmh SW 3.1 mph5.0 kmh 30.02 in1016.6 mb 0.00 in0.0 mm 0.00 in0.0 mm 0.18 in4.6 mm
07:50 PM 45.9°F7.7°C 37.7°F3.2°C 73% 2.2 mph SW3.5 kmh SW 3.1 mph5.0 kmh 30.03 in1016.9 mb 0.00 in0.0 mm 0.00 in0.0 mm 0.18 in4.6 mm
07:54 PM 45.9°F7.7°C 38.1°F3.4°C 74% 1.6 mph SW2.6 kmh SW 2.2 mph3.5 kmh 30.02 in1016.6 mb 0.00 in0.0 mm 0.00 in0.0 mm 0.18 in4.6 mm
07:58 PM 46.2°F7.9°C 38.4°F3.6°C 74% 1.6 mph SW2.6 kmh SW 2.2 mph3.5 kmh 30.02 in1016.6 mb 0.00 in0.0 mm 0.00 in0.0 mm 0.18 in4.6 mm
08:02 PM 46.2°F7.9°C 38.4°F3.6°C 74% 1.6 mph SW2.6 kmh SW 2.2 mph3.5 kmh 30.03 in1016.9 mb 0.00 in0.0 mm 0.00 in0.0 mm 0.18 in4.6 mm
08:06 PM 46.2°F7.9°C 38.4°F3.6°C 74% 1.6 mph SW2.6 kmh SW 2.2 mph3.5 kmh 30.03 in1016.9 mb 0.00 in0.0 mm 0.00 in0.0 mm 0.18 in4.6 mm
08:10 PM 46.6°F8.1°C 38.4°F3.6°C 73% 1.6 mph S2.6 kmh S 2.2 mph3.5 kmh 30.03 in1016.9 mb 0.00 in0.0 mm 0.00 in0.0 mm 0.18 in4.6 mm
08:14 PM 46.4°F8.0°C 38.2°F3.4°C 73% 0.7 mph S1.1 kmh S 1.6 mph2.6 kmh 30.03 in1016.9 mb 0.00 in0.0 mm 0.00 in0.0 mm 0.18 in4.6 mm
08:19 PM 46.0°F7.8°C 37.9°F3.3°C 73% 0.7 mph SW1.1 kmh SW 1.6 mph2.6 kmh 30.02 in1016.6 mb 0.00 in0.0 mm 0.00 in0.0 mm 0.18 in4.6 mm
08:23 PM 45.7°F7.6°C 37.2°F2.9°C 72% 1.6 mph S2.6 kmh S 2.2 mph3.5 kmh 30.03 in1016.9 mb 0.00 in0.0 mm 0.00 in0.0 mm 0.18 in4.6 mm
08:27 PM 45.1°F7.3°C 38.7°F3.7°C 78% 0.7 mph S1.1 kmh S 1.6 mph2.6 kmh 30.03 in1016.9 mb 0.00 in0.0 mm 0.00 in0.0 mm 0.18 in4.6 mm
08:31 PM 45.0°F7.2°C 38.9°F3.8°C 79% Calm Calm -- 30.03 in1016.9 mb 0.00 in0.0 mm 0.00 in0.0 mm 0.18 in4.6 mm
08:35 PM 44.8°F7.1°C 38.7°F3.7°C 79% Calm Calm -- 30.02 in1016.6 mb 0.00 in0.0 mm 0.00 in0.0 mm 0.18 in4.6 mm
08:39 PM 44.8°F7.1°C 39.0°F3.9°C 80% Calm Calm -- 30.03 in1016.9 mb 0.00 in0.0 mm 0.00 in0.0 mm 0.18 in4.6 mm
08:43 PM 44.6°F7.0°C 38.8°F3.8°C 80% Calm Calm -- 30.03 in1016.9 mb 0.00 in0.0 mm 0.00 in0.0 mm 0.18 in4.6 mm
08:47 PM 44.4°F6.9°C 38.6°F3.7°C 80% 1.6 mph S2.6 kmh S 2.2 mph3.5 kmh 30.03 in1016.9 mb 0.00 in0.0 mm 0.00 in0.0 mm 0.18 in4.6 mm
08:51 PM 44.2°F6.8°C 38.5°F3.6°C 80% 5.4 mph SW8.7 kmh SW 7.6 mph12.2 kmh 30.03 in1016.9 mb 0.00 in0.0 mm 0.00 in0.0 mm 0.18 in4.6 mm
08:55 PM 44.6°F7.0°C 39.1°F3.9°C 81% 3.1 mph W5.0 kmh W 4.5 mph7.2 kmh 30.03 in1016.9 mb 0.00 in0.0 mm 0.00 in0.0 mm 0.18 in4.6 mm
08:59 PM 45.1°F7.3°C 39.7°F4.3°C 81% 3.1 mph SW5.0 kmh SW 3.8 mph6.1 kmh 30.02 in1016.6 mb 0.00 in0.0 mm 0.00 in0.0 mm 0.18 in4.6 mm
09:03 PM 45.7°F7.6°C 38.2°F3.4°C 75% 3.1 mph SW5.0 kmh SW 3.8 mph6.1 kmh 30.02 in1016.6 mb 0.00 in0.0 mm 0.00 in0.0 mm 0.18 in4.6 mm
09:05 PM 45.9°F7.7°C 38.4°F3.6°C 75% 2.2 mph SW3.5 kmh SW 3.1 mph5.0 kmh 30.02 in1016.6 mb 0.00 in0.0 mm 0.00 in0.0 mm 0.18 in4.6 mm
09:09 PM 46.0°F7.8°C 38.2°F3.4°C 74% 2.2 mph SW3.5 kmh SW 4.5 mph7.2 kmh 30.02 in1016.6 mb 0.00 in0.0 mm 0.00 in0.0 mm 0.18 in4.6 mm
09:17 PM 46.4°F8.0°C 37.9°F3.3°C 72% 2.2 mph SW3.5 kmh SW 3.1 mph5.0 kmh 30.02 in1016.6 mb 0.00 in0.0 mm 0.00 in0.0 mm 0.18 in4.6 mm
09:22 PM 46.2°F7.9°C 37.7°F3.2°C 72% 1.6 mph SW2.6 kmh SW 2.2 mph3.5 kmh 30.01 in1016.3 mb 0.00 in0.0 mm 0.00 in0.0 mm 0.18 in4.6 mm
09:26 PM 46.2°F7.9°C 37.7°F3.2°C 72% 1.6 mph SW2.6 kmh SW 2.2 mph3.5 kmh 30.02 in1016.6 mb 0.00 in0.0 mm 0.00 in0.0 mm 0.18 in4.6 mm
09:29 PM 46.2°F7.9°C 37.7°F3.2°C 72% 2.2 mph SW3.5 kmh SW 3.8 mph6.1 kmh 30.02 in1016.6 mb 0.00 in0.0 mm 0.00 in0.0 mm 0.18 in4.6 mm
09:33 PM 46.2°F7.9°C 37.7°F3.2°C 72% 2.2 mph S3.5 kmh S 3.1 mph5.0 kmh 30.02 in1016.6 mb 0.00 in0.0 mm 0.00 in0.0 mm 0.18 in4.6 mm
09:37 PM 46.2°F7.9°C 37.7°F3.2°C 72% 0.7 mph S1.1 kmh S 1.6 mph2.6 kmh 30.02 in1016.6 mb 0.00 in0.0 mm 0.00 in0.0 mm 0.18 in4.6 mm
09:42 PM 46.2°F7.9°C 37.7°F3.2°C 72% 1.6 mph S2.6 kmh S 2.2 mph3.5 kmh 30.02 in1016.6 mb 0.00 in0.0 mm 0.00 in0.0 mm 0.18 in4.6 mm
09:45 PM 46.2°F7.9°C 37.7°F3.2°C 72% Calm Calm 1.6 mph2.6 kmh 30.02 in1016.6 mb 0.00 in0.0 mm 0.00 in0.0 mm 0.18 in4.6 mm
09:53 PM 46.0°F7.8°C 37.9°F3.3°C 73% 1.6 mph S2.6 kmh S 2.2 mph3.5 kmh 30.02 in1016.6 mb 0.00 in0.0 mm 0.00 in0.0 mm 0.18 in4.6 mm
09:57 PM 46.0°F7.8°C 37.9°F3.3°C 73% 0.7 mph S1.1 kmh S 1.6 mph2.6 kmh 30.02 in1016.6 mb 0.00 in0.0 mm 0.00 in0.0 mm 0.18 in4.6 mm
10:05 PM 46.0°F7.8°C 37.9°F3.3°C 73% 1.6 mph S2.6 kmh S 2.2 mph3.5 kmh 30.01 in1016.3 mb 0.00 in0.0 mm 0.00 in0.0 mm 0.18 in4.6 mm
10:10 PM 46.0°F7.8°C 38.2°F3.4°C 74% 0.7 mph S1.1 kmh S 1.6 mph2.6 kmh 30.02 in1016.6 mb 0.00 in0.0 mm 0.00 in0.0 mm 0.18 in4.6 mm
10:13 PM 46.0°F7.8°C 38.2°F3.4°C 74% 0.7 mph S1.1 kmh S 1.6 mph2.6 kmh 30.01 in1016.3 mb 0.00 in0.0 mm 0.00 in0.0 mm 0.18 in4.6 mm
10:18 PM 46.0°F7.8°C 38.2°F3.4°C 74% 1.6 mph SE2.6 kmh SE 2.2 mph3.5 kmh 30.01 in1016.3 mb 0.00 in0.0 mm 0.00 in0.0 mm 0.18 in4.6 mm
10:21 PM 46.0°F7.8°C 38.2°F3.4°C 74% 1.6 mph S2.6 kmh S 3.1 mph5.0 kmh 30.01 in1016.3 mb 0.00 in0.0 mm 0.00 in0.0 mm 0.18 in4.6 mm
10:29 PM 46.4°F8.0°C 38.6°F3.7°C 74% Calm Calm -- 30.01 in1016.3 mb 0.00 in0.0 mm 0.00 in0.0 mm 0.18 in4.6 mm
10:34 PM 46.4°F8.0°C 38.6°F3.7°C 74% 3.8 mph SW6.1 kmh SW 4.5 mph7.2 kmh 30.01 in1016.3 mb 0.00 in0.0 mm 0.00 in0.0 mm 0.18 in4.6 mm
10:37 PM 46.8°F8.2°C 38.6°F3.7°C 73% 3.1 mph SSW5.0 kmh SSW 3.8 mph6.1 kmh 30.01 in1016.3 mb 0.00 in0.0 mm 0.00 in0.0 mm 0.18 in4.6 mm
10:42 PM 47.3°F8.5°C 38.7°F3.7°C 72% 4.5 mph SW7.2 kmh SW 5.4 mph8.7 kmh 30.01 in1016.3 mb 0.00 in0.0 mm 0.00 in0.0 mm 0.18 in4.6 mm
10:45 PM 47.7°F8.7°C 38.7°F3.7°C 71% 7.6 mph W12.2 kmh W 9.8 mph15.8 kmh 30.01 in1016.3 mb 0.00 in0.0 mm 0.00 in0.0 mm 0.18 in4.6 mm
10:49 PM 48.2°F9.0°C 38.9°F3.8°C 70% 6.0 mph SW9.7 kmh SW 9.2 mph14.8 kmh 30.01 in1016.3 mb 0.00 in0.0 mm 0.00 in0.0 mm 0.18 in4.6 mm
10:53 PM 48.4°F9.1°C 39.1°F3.9°C 70% 6.9 mph S11.1 kmh S 9.2 mph14.8 kmh 30.02 in1016.6 mb 0.00 in0.0 mm 0.00 in0.0 mm 0.18 in4.6 mm
10:57 PM 48.4°F9.1°C 39.1°F3.9°C 70% 6.9 mph SW11.1 kmh SW 7.6 mph12.2 kmh 30.01 in1016.3 mb 0.00 in0.0 mm 0.00 in0.0 mm 0.18 in4.6 mm
11:01 PM 48.2°F9.0°C 39.2°F4.0°C 71% 6.0 mph W9.7 kmh W 9.2 mph14.8 kmh 30.01 in1016.3 mb 0.00 in0.0 mm 0.00 in0.0 mm 0.19 in4.8 mm
11:05 PM 48.0°F8.9°C 39.1°F3.9°C 71% 3.1 mph W5.0 kmh W 4.5 mph7.2 kmh 30.01 in1016.3 mb 0.01 in0.3 mm 0.18 in4.6 mm 0.19 in4.8 mm
11:10 PM 47.8°F8.8°C 39.3°F4.1°C 72% 2.2 mph SW3.5 kmh SW 3.1 mph5.0 kmh 30.00 in1015.9 mb 0.01 in0.3 mm 0.00 in0.0 mm 0.19 in4.8 mm
11:13 PM 47.7°F8.7°C 39.1°F3.9°C 72% 3.1 mph SW5.0 kmh SW 3.8 mph6.1 kmh 30.00 in1015.9 mb 0.01 in0.3 mm 0.00 in0.0 mm 0.19 in4.8 mm
11:17 PM 47.5°F8.6°C 38.9°F3.8°C 72% 3.1 mph S5.0 kmh S 3.8 mph6.1 kmh 30.00 in1015.9 mb 0.01 in0.3 mm 0.00 in0.0 mm 0.19 in4.8 mm
11:21 PM 47.5°F8.6°C 38.9°F3.8°C 72% 2.2 mph SW3.5 kmh SW 3.8 mph6.1 kmh 30.00 in1015.9 mb 0.01 in0.3 mm 0.00 in0.0 mm 0.19 in4.8 mm
11:25 PM 47.3°F8.5°C 38.7°F3.7°C 72% 1.6 mph SW2.6 kmh SW 2.2 mph3.5 kmh 30.00 in1015.9 mb 0.01 in0.3 mm 0.00 in0.0 mm 0.19 in4.8 mm
11:30 PM 46.9°F8.3°C 38.7°F3.7°C 73% 1.6 mph SSW2.6 kmh SSW 2.2 mph3.5 kmh 30.00 in1015.9 mb 0.01 in0.3 mm 0.00 in0.0 mm 0.19 in4.8 mm
11:34 PM 46.8°F8.2°C 38.6°F3.7°C 73% 1.6 mph SW2.6 kmh SW 3.1 mph5.0 kmh 29.99 in1015.6 mb 0.01 in0.3 mm 0.00 in0.0 mm 0.19 in4.8 mm
11:38 PM 46.6°F8.1°C 38.4°F3.6°C 73% 2.2 mph SW3.5 kmh SW 3.1 mph5.0 kmh 29.99 in1015.6 mb 0.00 in0.0 mm 0.00 in0.0 mm 0.19 in4.8 mm
11:42 PM 46.6°F8.1°C 38.7°F3.7°C 74% 1.6 mph SW2.6 kmh SW 2.2 mph3.5 kmh 29.99 in1015.6 mb 0.01 in0.3 mm 0.18 in4.6 mm 0.19 in4.8 mm
11:46 PM 46.4°F8.0°C 38.6°F3.7°C 74% 1.6 mph S2.6 kmh S 2.2 mph3.5 kmh 29.99 in1015.6 mb 0.01 in0.3 mm 0.00 in0.0 mm 0.19 in4.8 mm
11:50 PM 46.2°F7.9°C 38.1°F3.4°C 73% 0.7 mph SW1.1 kmh SW 1.6 mph2.6 kmh 29.98 in1015.2 mb 0.01 in0.3 mm 0.00 in0.0 mm 0.19 in4.8 mm
11:55 PM 45.9°F7.7°C 37.7°F3.2°C 73% 1.6 mph S2.6 kmh S 2.2 mph3.5 kmh 29.99 in1015.6 mb 0.01 in0.3 mm 0.00 in0.0 mm 0.19 in4.8 mm
11:58 PM 45.5°F7.5°C 37.4°F3.0°C 73% Calm Calm -- 29.99 in1015.6 mb 0.00 in0.0 mm 0.00 in0.0 mm 0.19 in4.8 mm